Wetterdaten: Dienstag, 30.08.2022
Datum Zeit Temp. Aussen Temp. o. S. Temp +5cm Feuchte Auss Luftdruck Regen Sonnenschein Regendauer Solar Windben Empfang
30.08.2022 00:00 18,8 C 17,8 C 13,9 C 72 % 1019,9 hPa 0,0 l/m 0 min 0 min 0 W/m 0,0 km/h (0 Bft) 95,65 %
30.08.2022 00:02 18,8 C 17,8 C 13,9 C 72 % 1019,9 hPa 0,0 l/m 0 min 0 min 0 W/m 0,0 km/h (0 Bft) 95,24 %
30.08.2022 00:04 18,8 C 17,8 C 13,9 C 72 % 1019,9 hPa 0,0 l/m 0 min 0 min 0 W/m 0,0 km/h (0 Bft) 95,74 %
30.08.2022 00:08 18,7 C 17,8 C 13,9 C 72 % 1020,0 hPa 0,0 l/m 0 min 0 min 0 W/m 0,0 km/h (0 Bft) 94,68 %
30.08.2022 00:10 18,7 C 17,8 C 13,9 C 72 % 1020,0 hPa 0,0 l/m 0 min 0 min 0 W/m 0,0 km/h (0 Bft) 100,00 %
30.08.2022 00:12 18,7 C 17,8 C 13,9 C 72 % 1020,1 hPa 0,0 l/m 0 min 0 min 0 W/m 0,0 km/h (0 Bft) 100,00 %
30.08.2022 00:14 18,7 C 17,8 C 13,9 C 72 % 1020,1 hPa 0,0 l/m 0 min 0 min 0 W/m 0,0 km/h (0 Bft) 100,00 %
30.08.2022 00:16 18,7 C 17,8 C 13,9 C 72 % 1020,1 hPa 0,0 l/m 0 min 0 min 0 W/m 0,0 km/h (0 Bft) 95,74 %
30.08.2022 00:18 18,7 C 17,8 C 13,9 C 72 % 1020,1 hPa 0,0 l/m 0 min 0 min 0 W/m 0,0 km/h (0 Bft) 95,74 %
30.08.2022 00:20 18,7 C 17,8 C 13,9 C 73 % 1020,2 hPa 0,0 l/m 0 min 0 min 0 W/m 0,0 km/h (0 Bft) 95,74 %
30.08.2022 00:22 18,7 C 17,8 C 13,9 C 73 % 1020,1 hPa 0,0 l/m 0 min 0 min 0 W/m 0,0 km/h (0 Bft) 95,74 %
30.08.2022 00:24 18,7 C 17,8 C 13,9 C 73 % 1020,1 hPa 0,0 l/m 0 min 0 min 0 W/m 0,0 km/h (0 Bft) 93,48 %
30.08.2022 00:26 18,7 C 17,8 C 13,9 C 73 % 1020,2 hPa 0,0 l/m 0 min 0 min 0 W/m 0,0 km/h (0 Bft) 95,74 %
30.08.2022 00:28 18,7 C 17,8 C 13,9 C 74 % 1020,2 hPa 0,0 l/m 0 min 0 min 0 W/m 0,0 km/h (0 Bft) 93,62 %
30.08.2022 00:30 18,7 C 17,8 C 13,9 C 74 % 1020,3 hPa 0,0 l/m 0 min 0 min 0 W/m 0,0 km/h (0 Bft) 95,74 %
30.08.2022 00:32 18,7 C 17,8 C 13,9 C 74 % 1020,3 hPa 0,0 l/m 0 min 0 min 0 W/m 0,0 km/h (0 Bft) 93,62 %
30.08.2022 00:34 18,6 C 17,8 C 13,9 C 74 % 1020,3 hPa 0,0 l/m 0 min 0 min 0 W/m 0,0 km/h (0 Bft) 95,74 %
30.08.2022 00:36 18,6 C 17,8 C 13,9 C 73 % 1020,3 hPa 0,0 l/m 0 min 0 min 0 W/m 0,0 km/h (0 Bft) 95,65 %
30.08.2022 00:38 18,6 C 17,8 C 13,9 C 73 % 1020,3 hPa 0,0 l/m 0 min 0 min 0 W/m 0,0 km/h (0 Bft) 100,00 %
30.08.2022 00:40 18,6 C 17,8 C 13,9 C 74 % 1020,3 hPa 0,0 l/m 0 min 0 min 0 W/m 0,0 km/h (0 Bft) 97,87 %
30.08.2022 00:42 18,6 C 17,8 C 13,9 C 75 % 1020,3 hPa 0,0 l/m 0 min 0 min 0 W/m 0,0 km/h (0 Bft) 97,87 %
30.08.2022 00:44 18,6 C 17,8 C 13,9 C 75 % 1020,3 hPa 0,0 l/m 0 min 0 min 0 W/m 0,0 km/h (0 Bft) 97,87 %
30.08.2022 00:46 18,6 C 17,8 C 13,9 C 74 % 1020,3 hPa 0,0 l/m 0 min 0 min 0 W/m 3,2 km/h (1 Bft) 97,87 %
30.08.2022 00:48 18,6 C 17,8 C 13,9 C 74 % 1020,3 hPa 0,0 l/m 0 min 0 min 0 W/m 3,2 km/h (1 Bft) 100,00 %
30.08.2022 00:50 18,6 C 17,8 C 13,9 C 74 % 1020,3 hPa 0,0 l/m 0 min 0 min 0 W/m 3,2 km/h (1 Bft) 100,00 %
30.08.2022 00:52 18,6 C 17,8 C 13,9 C 74 % 1020,3 hPa 0,0 l/m 0 min 0 min 0 W/m 3,2 km/h (1 Bft) 97,87 %
30.08.2022 00:54 18,6 C 17,8 C 13,9 C 73 % 1020,3 hPa 0,0 l/m 0 min 0 min 0 W/m 3,2 km/h (1 Bft) 100,00 %
30.08.2022 00:56 18,6 C 17,8 C 14,4 C 74 % 1020,3 hPa 0,0 l/m 0 min 0 min 0 W/m 3,2 km/h (1 Bft) 100,00 %
30.08.2022 00:58 18,6 C 17,8 C 14,4 C 73 % 1020,3 hPa 0,0 l/m 0 min 0 min 0 W/m 6,4 km/h (2 Bft) 100,00 %
30.08.2022 01:00 18,6 C 17,8 C 14,4 C 73 % 1020,3 hPa 0,0 l/m 0 min 0 min 0 W/m 3,2 km/h (1 Bft) 97,83 %
30.08.2022 01:08 18,7 C 17,8 C 14,4 C 74 % 1020,3 hPa 0,0 l/m 0 min 0 min 0 W/m 3,2 km/h (1 Bft) 100,00 %
30.08.2022 01:10 18,7 C 17,8 C 14,4 C 73 % 1020,3 hPa 0,0 l/m 0 min 0 min 0 W/m 6,4 km/h (2 Bft) 100,00 %
30.08.2022 01:12 18,7 C 18,3 C 14,4 C 73 % 1020,3 hPa 0,0 l/m 0 min 0 min 0 W/m 3,2 km/h (1 Bft) 95,65 %
30.08.2022 01:14 18,7 C 18,3 C 14,4 C 73 % 1020,2 hPa 0,0 l/m 0 min 0 min 0 W/m 6,4 km/h (2 Bft) 100,00 %
30.08.2022 01:16 18,7 C 18,3 C 14,4 C 73 % 1020,2 hPa 0,0 l/m 0 min 0 min 0 W/m 3,2 km/h (1 Bft) 97,87 %
30.08.2022 01:18 18,8 C 18,3 C 14,4 C 73 % 1020,1 hPa 0,0 l/m 0 min 0 min 0 W/m 9,7 km/h (2 Bft) 97,87 %
30.08.2022 01:20 18,8 C 18,3 C 14,4 C 73 % 1020,1 hPa 0,0 l/m 0 min 0 min 0 W/m 3,2 km/h (1 Bft) 95,74 %
30.08.2022 01:22 18,8 C 18,3 C 14,4 C 73 % 1020,2 hPa 0,0 l/m 0 min 0 min 0 W/m 3,2 km/h (1 Bft) 97,87 %
30.08.2022 01:24 18,8 C 18,3 C 14,4 C 73 % 1020,1 hPa 0,0 l/m 0 min 0 min 0 W/m 3,2 km/h (1 Bft) 95,65 %
30.08.2022 01:26 18,8 C 18,3 C 14,4 C 74 % 1020,2 hPa 0,0 l/m 0 min 0 min 0 W/m 3,2 km/h (1 Bft) 97,87 %
30.08.2022 01:28 18,9 C 18,3 C 14,4 C 74 % 1020,2 hPa 0,0 l/m 0 min 0 min 0 W/m 6,4 km/h (2 Bft) 97,87 %
30.08.2022 01:30 18,9 C 18,3 C 14,4 C 74 % 1020,2 hPa 0,0 l/m 0 min 0 min 0 W/m 3,2 km/h (1 Bft) 97,87 %
30.08.2022 01:32 18,9 C 18,3 C 14,4 C 74 % 1020,2 hPa 0,0 l/m 0 min 0 min 0 W/m 6,4 km/h (2 Bft) 100,00 %
30.08.2022 01:34 18,9 C 18,3 C 14,4 C 74 % 1020,1 hPa 0,0 l/m 0 min 0 min 0 W/m 6,4 km/h (2 Bft) 100,00 %
30.08.2022 01:36 18,9 C 18,3 C 14,4 C 74 % 1020,1 hPa 0,0 l/m 0 min 0 min 0 W/m 6,4 km/h (2 Bft) 100,00 %
30.08.2022 01:38 18,9 C 18,3 C 14,4 C 74 % 1020,1 hPa 0,0 l/m 0 min 0 min 0 W/m 6,4 km/h (2 Bft) 100,00 %
30.08.2022 01:40 19,0 C 18,3 C 14,4 C 74 % 1020,1 hPa 0,0 l/m 0 min 0 min 0 W/m 9,7 km/h (2 Bft) 100,00 %
30.08.2022 01:42 19,0 C 18,3 C 14,4 C 74 % 1020,1 hPa 0,0 l/m 0 min 0 min 0 W/m 9,7 km/h (2 Bft) 100,00 %
30.08.2022 01:44 19,0 C 18,3 C 14,4 C 74 % 1020,1 hPa 0,0 l/m 0 min 0 min 0 W/m 9,7 km/h (2 Bft) 100,00 %
30.08.2022 01:46 19,0 C 18,3 C 14,4 C 74 % 1020,1 hPa 0,0 l/m 0 min 0 min 0 W/m 9,7 km/h (2 Bft) 100,00 %
30.08.2022 01:48 19,0 C 18,3 C 14,4 C 74 % 1020,1 hPa 0,0 l/m 0 min 0 min 0 W/m 6,4 km/h (2 Bft) 97,83 %
30.08.2022 01:50 19,0 C 18,3 C 14,4 C 74 % 1020,1 hPa 0,0 l/m 0 min 0 min 0 W/m 9,7 km/h (2 Bft) 100,00 %
30.08.2022 01:52 19,0 C 18,3 C 14,4 C 74 % 1020,0 hPa 0,0 l/m 0 min 0 min 0 W/m 9,7 km/h (2 Bft) 100,00 %
30.08.2022 01:54 19,0 C 18,3 C 14,4 C 74 % 1020,1 hPa 0,0 l/m 0 min 0 min 0 W/m 6,4 km/h (2 Bft) 100,00 %
30.08.2022 01:56 19,0 C 18,3 C 14,4 C 74 % 1020,2 hPa 0,0 l/m 0 min 0 min 0 W/m 16,1 km/h (3 Bft) 100,00 %
30.08.2022 01:58 19,0 C 18,3 C 14,4 C 74 % 1020,1 hPa 0,0 l/m 0 min 0 min 0 W/m 9,7 km/h (2 Bft) 100,00 %
30.08.2022 02:00 19,0 C 18,3 C 14,4 C 74 % 1020,1 hPa 0,0 l/m 0 min 0 min 0 W/m 6,4 km/h (2 Bft) 100,00 %
30.08.2022 02:02 19,0 C 18,3 C 14,4 C 74 % 1020,1 hPa 0,0 l/m 0 min 0 min 0 W/m 9,7 km/h (2 Bft) 100,00 %
30.08.2022 02:04 19,0 C 18,3 C 14,4 C 75 % 1020,1 hPa 0,0 l/m 0 min 0 min 0 W/m 12,9 km/h (3 Bft) 100,00 %
30.08.2022 02:06 19,0 C 18,3 C 14,4 C 74 % 1020,1 hPa 0,0 l/m 0 min 0 min 0 W/m 6,4 km/h (2 Bft) 100,00 %
30.08.2022 02:08 19,0 C 18,3 C 14,4 C 75 % 1020,1 hPa 0,0 l/m 0 min 0 min 0 W/m 12,9 km/h (3 Bft) 100,00 %
30.08.2022 02:10 19,0 C 18,3 C 14,4 C 75 % 1020,1 hPa 0,0 l/m 0 min 0 min 0 W/m 6,4 km/h (2 Bft) 100,00 %
30.08.2022 02:12 19,0 C 18,3 C 14,4 C 75 % 1020,0 hPa 0,0 l/m 0 min 0 min 0 W/m 6,4 km/h (2 Bft) 100,00 %
30.08.2022 02:14 19,0 C 18,3 C 14,4 C 75 % 1020,0 hPa 0,0 l/m 0 min 0 min 0 W/m 12,9 km/h (3 Bft) 100,00 %
30.08.2022 02:16 19,0 C 17,8 C 14,4 C 75 % 1020,0 hPa 0,0 l/m 0 min 0 min 0 W/m 6,4 km/h (2 Bft) 100,00 %
30.08.2022 02:18 18,9 C 17,8 C 14,4 C 75 % 1020,0 hPa 0,0 l/m 0 min 0 min 0 W/m 6,4 km/h (2 Bft) 100,00 %
30.08.2022 02:20 18,9 C 17,8 C 14,4 C 75 % 1020,0 hPa 0,0 l/m 0 min 0 min 0 W/m 12,9 km/h (3 Bft) 100,00 %
30.08.2022 02:22 18,9 C 17,8 C 14,4 C 75 % 1020,0 hPa 0,0 l/m 0 min 0 min 0 W/m 9,7 km/h (2 Bft) 97,87 %
30.08.2022 02:24 18,9 C 17,8 C 14,4 C 75 % 1020,0 hPa 0,0 l/m 0 min 0 min 0 W/m 6,4 km/h (2 Bft) 100,00 %
30.08.2022 02:26 18,9 C 17,8 C 14,4 C 76 % 1019,9 hPa 0,0 l/m 0 min 0 min 0 W/m 9,7 km/h (2 Bft) 100,00 %
30.08.2022 02:28 18,9 C 17,8 C 14,4 C 76 % 1020,0 hPa 0,0 l/m 0 min 0 min 0 W/m 9,7 km/h (2 Bft) 100,00 %
30.08.2022 02:30 18,9 C 17,8 C 14,4 C 76 % 1020,0 hPa 0,0 l/m 0 min 0 min 0 W/m 12,9 km/h (3 Bft) 100,00 %
30.08.2022 02:32 18,9 C 17,8 C 14,4 C 76 % 1020,0 hPa 0,0 l/m 0 min 0 min 0 W/m 9,7 km/h (2 Bft) 97,87 %
30.08.2022 02:34 18,9 C 17,8 C 14,4 C 76 % 1020,0 hPa 0,0 l/m 0 min 0 min 0 W/m 16,1 km/h (3 Bft) 97,87 %
30.08.2022 02:36 18,9 C 17,8 C 14,4 C 76 % 1020,0 hPa 0,0 l/m 0 min 0 min 0 W/m 9,7 km/h (2 Bft) 95,65 %
30.08.2022 02:38 18,9 C 17,8 C 14,4 C 76 % 1020,0 hPa 0,0 l/m 0 min 0 min 0 W/m 6,4 km/h (2 Bft) 97,87 %
30.08.2022 02:40 18,9 C 17,8 C 14,4 C 76 % 1020,0 hPa 0,0 l/m 0 min 0 min 0 W/m 12,9 km/h (3 Bft) 97,87 %
30.08.2022 02:42 18,8 C 17,8 C 14,4 C 76 % 1020,0 hPa 0,0 l/m 0 min 0 min 0 W/m 3,2 km/h (1 Bft) 93,62 %
30.08.2022 02:44 18,8 C 17,8 C 14,4 C 76 % 1020,0 hPa 0,0 l/m 0 min 0 min 0 W/m 3,2 km/h (1 Bft) 97,87 %
30.08.2022 02:46 18,8 C 17,8 C 14,4 C 77 % 1020,1 hPa 0,0 l/m 0 min 0 min 0 W/m 6,4 km/h (2 Bft) 95,74 %
30.08.2022 02:48 18,8 C 17,8 C 14,4 C 77 % 1020,1 hPa 0,0 l/m 0 min 0 min 0 W/m 6,4 km/h (2 Bft) 97,83 %
30.08.2022 02:50 18,8 C 17,8 C 14,4 C 77 % 1020,1 hPa 0,0 l/m 0 min 0 min 0 W/m 6,4 km/h (2 Bft) 97,87 %
30.08.2022 02:52 18,8 C 17,8 C 14,4 C 77 % 1020,2 hPa 0,0 l/m 0 min 0 min 0 W/m 3,2 km/h (1 Bft) 95,74 %
30.08.2022 02:54 18,7 C 17,8 C 14,4 C 77 % 1020,2 hPa 0,0 l/m 0 min 0 min 0 W/m 12,9 km/h (3 Bft) 92,00 %
30.08.2022 02:56 18,7 C 17,8 C 14,4 C 77 % 1020,2 hPa 0,0 l/m 0 min 0 min 0 W/m 12,9 km/h (3 Bft) 93,62 %
30.08.2022 02:58 18,7 C 17,8 C 13,9 C 77 % 1020,2 hPa 0,0 l/m 0 min 0 min 0 W/m 12,9 km/h (3 Bft) 93,62 %
30.08.2022 03:00 18,7 C 17,8 C 13,9 C 77 % 1020,2 hPa 0,0 l/m 0 min 0 min 0 W/m 6,4 km/h (2 Bft) 93,48 %
30.08.2022 03:02 18,6 C 17,8 C 13,9 C 77 % 1020,1 hPa 0,0 l/m 0 min 0 min 0 W/m 6,4 km/h (2 Bft) 95,74 %
30.08.2022 03:04 18,6 C 17,8 C 13,9 C 78 % 1020,2 hPa 0,0 l/m 0 min 0 min 0 W/m 3,2 km/h (1 Bft) 95,74 %
30.08.2022 03:06 18,6 C 17,2 C 13,9 C 78 % 1020,1 hPa 0,0 l/m 0 min 0 min 0 W/m 6,4 km/h (2 Bft) 93,62 %
30.08.2022 03:08 18,6 C 17,2 C 13,9 C 78 % 1020,1 hPa 0,0 l/m 0 min 0 min 0 W/m 6,4 km/h (2 Bft) 93,62 %
30.08.2022 03:10 18,6 C 17,2 C 13,9 C 78 % 1020,2 hPa 0,0 l/m 0 min 0 min 0 W/m 9,7 km/h (2 Bft) 91,49 %
30.08.2022 03:12 18,6 C 17,2 C 13,9 C 78 % 1020,1 hPa 0,0 l/m 0 min 0 min 0 W/m 6,4 km/h (2 Bft) 91,30 %
30.08.2022 03:14 18,5 C 17,2 C 13,9 C 78 % 1020,2 hPa 0,0 l/m 0 min 0 min 0 W/m 3,2 km/h (1 Bft) 93,62 %
30.08.2022 03:16 18,5 C 17,2 C 13,9 C 78 % 1020,2 hPa 0,0 l/m 0 min 0 min 0 W/m 6,4 km/h (2 Bft) 91,49 %
30.08.2022 03:18 18,4 C 17,2 C 13,9 C 78 % 1020,1 hPa 0,0 l/m 0 min 0 min 0 W/m 6,4 km/h (2 Bft) 93,62 %
30.08.2022 03:20 18,4 C 17,2 C 13,9 C 79 % 1020,2 hPa 0,0 l/m 0 min 0 min 0 W/m 3,2 km/h (1 Bft) 95,74 %
30.08.2022 03:22 18,4 C 17,2 C 13,9 C 79 % 1020,1 hPa 0,0 l/m 0 min 0 min 0 W/m 6,4 km/h (2 Bft) 91,49 %
30.08.2022 03:24 18,4 C 17,2 C 13,9 C 79 % 1020,2 hPa 0,0 l/m 0 min 0 min 0 W/m 3,2 km/h (1 Bft) 95,65 %
30.08.2022 03:26 18,4 C 17,2 C 13,9 C 79 % 1020,2 hPa 0,0 l/m 0 min 0 min 0 W/m 6,4 km/h (2 Bft) 95,74 %
30.08.2022 03:28 18,3 C 17,2 C 13,9 C 79 % 1020,2 hPa 0,0 l/m 0 min 0 min 0 W/m 6,4 km/h (2 Bft) 95,74 %
30.08.2022 03:30 18,3 C 17,2 C 13,9 C 79 % 1020,1 hPa 0,0 l/m 0 min 0 min 0 W/m 6,4 km/h (2 Bft) 97,87 %
30.08.2022 03:32 18,3 C 17,2 C 13,9 C 79 % 1020,2 hPa 0,0 l/m 0 min 0 min 0 W/m 6,4 km/h (2 Bft) 95,74 %
30.08.2022 03:34 18,3 C 17,2 C 13,9 C 79 % 1020,3 hPa 0,0 l/m 0 min 0 min 0 W/m 6,4 km/h (2 Bft) 97,87 %
30.08.2022 03:36 18,2 C 17,2 C 13,9 C 79 % 1020,3 hPa 0,0 l/m 0 min 0 min 0 W/m 3,2 km/h (1 Bft) 97,83 %
30.08.2022 03:38 18,2 C 17,2 C 13,9 C 79 % 1020,3 hPa 0,0 l/m 0 min 0 min 0 W/m 3,2 km/h (1 Bft) 97,87 %
30.08.2022 03:40 18,2 C 17,2 C 13,9 C 79 % 1020,3 hPa 0,0 l/m 0 min 0 min 0 W/m 6,4 km/h (2 Bft) 97,87 %
30.08.2022 03:42 18,2 C 17,2 C 13,9 C 79 % 1020,3 hPa 0,0 l/m 0 min 0 min 0 W/m 6,4 km/h (2 Bft) 100,00 %
30.08.2022 03:44 18,2 C 17,2 C 13,9 C 80 % 1020,4 hPa 0,0 l/m 0 min 0 min 0 W/m 3,2 km/h (1 Bft) 97,87 %
30.08.2022 03:46 18,2 C 17,2 C 13,9 C 80 % 1020,4 hPa 0,0 l/m 0 min 0 min 0 W/m 0,0 km/h (0 Bft) 100,00 %
30.08.2022 03:48 18,2 C 17,2 C 13,9 C 80 % 1020,4 hPa 0,0 l/m 0 min 0 min 0 W/m 0,0 km/h (0 Bft) 100,00 %
30.08.2022 03:50 18,2 C 17,2 C 13,9 C 80 % 1020,4 hPa 0,0 l/m 0 min 0 min 0 W/m 3,2 km/h (1 Bft) 100,00 %
30.08.2022 03:52 18,2 C 17,2 C 13,9 C 80 % 1020,4 hPa 0,0 l/m 0 min 0 min 0 W/m 3,2 km/h (1 Bft) 97,87 %
30.08.2022 03:54 18,1 C 17,2 C 13,9 C 80 % 1020,3 hPa 0,0 l/m 0 min 0 min 0 W/m 9,7 km/h (2 Bft) 100,00 %
30.08.2022 03:56 18,1 C 17,2 C 13,9 C 80 % 1020,3 hPa 0,0 l/m 0 min 0 min 0 W/m 6,4 km/h (2 Bft) 100,00 %
30.08.2022 03:58 18,1 C 17,2 C 13,3 C 80 % 1020,3 hPa 0,0 l/m 0 min 0 min 0 W/m 3,2 km/h (1 Bft) 97,87 %
30.08.2022 04:00 18,1 C 17,2 C 13,3 C 80 % 1020,3 hPa 0,0 l/m 0 min 0 min 0 W/m 6,4 km/h (2 Bft) 97,83 %
30.08.2022 04:02 18,0 C 16,7 C 13,3 C 80 % 1020,4 hPa 0,0 l/m 0 min 0 min 0 W/m 3,2 km/h (1 Bft) 97,87 %
30.08.2022 04:04 18,0 C 16,7 C 13,3 C 80 % 1020,3 hPa 0,0 l/m 0 min 0 min 0 W/m 3,2 km/h (1 Bft) 100,00 %
30.08.2022 04:06 18,0 C 16,7 C 13,3 C 80 % 1020,3 hPa 0,0 l/m 0 min 0 min 0 W/m 6,4 km/h (2 Bft) 100,00 %
30.08.2022 04:08 17,9 C 16,7 C 13,3 C 81 % 1020,3 hPa 0,0 l/m 0 min 0 min 0 W/m 6,4 km/h (2 Bft) 100,00 %
30.08.2022 04:10 17,9 C 16,7 C 13,3 C 81 % 1020,3 hPa 0,0 l/m 0 min 0 min 0 W/m 6,4 km/h (2 Bft) 100,00 %
30.08.2022 04:12 17,9 C 16,7 C 13,3 C 81 % 1020,3 hPa 0,0 l/m 0 min 0 min 0 W/m 6,4 km/h (2 Bft) 100,00 %
30.08.2022 04:14 17,8 C 16,7 C 13,3 C 81 % 1020,3 hPa 0,0 l/m 0 min 0 min 0 W/m 3,2 km/h (1 Bft) 100,00 %
30.08.2022 04:16 17,8 C 16,7 C 13,3 C 81 % 1020,3 hPa 0,0 l/m 0 min 0 min 0 W/m 6,4 km/h (2 Bft) 100,00 %
30.08.2022 04:18 17,8 C 16,7 C 13,3 C 81 % 1020,3 hPa 0,0 l/m 0 min 0 min 0 W/m 3,2 km/h (1 Bft) 100,00 %
30.08.2022 04:20 17,8 C 16,7 C 13,3 C 81 % 1020,2 hPa 0,0 l/m 0 min 0 min 0 W/m 6,4 km/h (2 Bft) 100,00 %
30.08.2022 04:22 17,7 C 16,7 C 13,3 C 82 % 1020,2 hPa 0,0 l/m 0 min 0 min 0 W/m 6,4 km/h (2 Bft) 97,87 %
30.08.2022 04:24 17,7 C 16,7 C 13,3 C 82 % 1020,2 hPa 0,0 l/m 0 min 0 min 0 W/m 3,2 km/h (1 Bft) 100,00 %
30.08.2022 04:26 17,7 C 16,7 C 13,3 C 82 % 1020,3 hPa 0,0 l/m 0 min 0 min 0 W/m 3,2 km/h (1 Bft) 100,00 %
30.08.2022 04:28 17,7 C 16,7 C 13,3 C 82 % 1020,3 hPa 0,0 l/m 0 min 0 min 0 W/m 3,2 km/h (1 Bft) 100,00 %
30.08.2022 04:30 17,6 C 16,7 C 13,3 C 82 % 1020,3 hPa 0,0 l/m 0 min 0 min 0 W/m 6,4 km/h (2 Bft) 100,00 %
30.08.2022 04:32 17,6 C 16,7 C 13,3 C 82 % 1020,3 hPa 0,0 l/m 0 min 0 min 0 W/m 3,2 km/h (1 Bft) 97,87 %
30.08.2022 04:34 17,6 C 16,7 C 13,3 C 82 % 1020,3 hPa 0,0 l/m 0 min 0 min 0 W/m 3,2 km/h (1 Bft) 100,00 %
30.08.2022 04:36 17,6 C 16,7 C 13,3 C 82 % 1020,3 hPa 0,0 l/m 0 min 0 min 0 W/m 3,2 km/h (1 Bft) 100,00 %
30.08.2022 04:38 17,6 C 16,7 C 13,3 C 82 % 1020,3 hPa 0,0 l/m 0 min 0 min 0 W/m 3,2 km/h (1 Bft) 100,00 %
30.08.2022 04:40 17,6 C 16,7 C 13,3 C 82 % 1020,3 hPa 0,0 l/m 0 min 0 min 0 W/m 3,2 km/h (1 Bft) 97,87 %
30.08.2022 04:42 17,6 C 16,7 C 13,3 C 82 % 1020,3 hPa 0,0 l/m 0 min 0 min 0 W/m 3,2 km/h (1 Bft) 97,87 %
30.08.2022 04:44 17,6 C 16,7 C 13,3 C 82 % 1020,3 hPa 0,0 l/m 0 min 0 min 0 W/m 3,2 km/h (1 Bft) 97,87 %
30.08.2022 04:46 17,6 C 16,7 C 13,3 C 83 % 1020,1 hPa 0,0 l/m 0 min 0 min 0 W/m 6,4 km/h (2 Bft) 100,00 %
30.08.2022 04:48 17,5 C 16,7 C 13,3 C 83 % 1020,1 hPa 0,0 l/m 0 min 0 min 0 W/m 6,4 km/h (2 Bft) 100,00 %
30.08.2022 04:50 17,5 C 16,7 C 13,3 C 83 % 1020,1 hPa 0,0 l/m 0 min 0 min 0 W/m 3,2 km/h (1 Bft) 97,83 %
30.08.2022 04:52 17,5 C 16,7 C 13,3 C 83 % 1020,1 hPa 0,0 l/m 0 min 0 min 0 W/m 3,2 km/h (1 Bft) 97,87 %
30.08.2022 04:54 17,5 C 16,7 C 13,3 C 83 % 1020,1 hPa 0,0 l/m 0 min 0 min 0 W/m 3,2 km/h (1 Bft) 95,74 %
30.08.2022 04:56 17,4 C 16,7 C 13,3 C 83 % 1020,0 hPa 0,0 l/m 0 min 0 min 0 W/m 6,4 km/h (2 Bft) 94,34 %
30.08.2022 04:58 17,4 C 16,7 C 13,3 C 83 % 1020,1 hPa 0,0 l/m 0 min 0 min 0 W/m 3,2 km/h (1 Bft) 97,87 %
30.08.2022 05:00 17,4 C 16,7 C 12,8 C 83 % 1020,0 hPa 0,0 l/m 0 min 0 min 0 W/m 3,2 km/h (1 Bft) 95,74 %
30.08.2022 05:02 17,4 C 16,7 C 12,8 C 83 % 1020,0 hPa 0,0 l/m 0 min 0 min 0 W/m 3,2 km/h (1 Bft) 97,87 %
30.08.2022 05:04 17,4 C 16,7 C 12,8 C 83 % 1020,1 hPa 0,0 l/m 0 min 0 min 0 W/m 3,2 km/h (1 Bft) 97,87 %
30.08.2022 05:06 17,4 C 16,7 C 12,8 C 83 % 1020,1 hPa 0,0 l/m 0 min 0 min 0 W/m 3,2 km/h (1 Bft) 96,55 %
30.08.2022 05:08 17,4 C 16,7 C 12,8 C 83 % 1020,1 hPa 0,0 l/m 0 min 0 min 0 W/m 3,2 km/h (1 Bft) 94,29 %
30.08.2022 05:10 17,4 C 16,1 C 12,8 C 83 % 1020,1 hPa 0,0 l/m 0 min 0 min 0 W/m 3,2 km/h (1 Bft) 97,87 %
30.08.2022 05:12 17,3 C 16,1 C 12,8 C 83 % 1020,0 hPa 0,0 l/m 0 min 0 min 0 W/m 3,2 km/h (1 Bft) 97,87 %
30.08.2022 05:14 17,3 C 16,1 C 12,8 C 83 % 1020,1 hPa 0,0 l/m 0 min 0 min 0 W/m 3,2 km/h (1 Bft) 97,87 %
30.08.2022 05:16 17,3 C 16,1 C 12,8 C 83 % 1020,0 hPa 0,0 l/m 0 min 0 min 0 W/m 3,2 km/h (1 Bft) 97,87 %
30.08.2022 05:18 17,3 C 16,1 C 12,8 C 83 % 1020,0 hPa 0,0 l/m 0 min 0 min 0 W/m 3,2 km/h (1 Bft) 97,87 %
30.08.2022 05:20 17,2 C 16,1 C 12,8 C 83 % 1020,0 hPa 0,0 l/m 0 min 0 min 0 W/m 3,2 km/h (1 Bft) 97,83 %
30.08.2022 05:22 17,2 C 16,1 C 12,8 C 83 % 1020,0 hPa 0,0 l/m 0 min 0 min 0 W/m 3,2 km/h (1 Bft) 97,87 %
30.08.2022 05:24 17,2 C 16,1 C 12,8 C 83 % 1020,1 hPa 0,0 l/m 0 min 0 min 0 W/m 6,4 km/h (2 Bft) 97,87 %
30.08.2022 05:26 17,2 C 16,1 C 12,8 C 83 % 1020,0 hPa 0,0 l/m 0 min 0 min 0 W/m 3,2 km/h (1 Bft) 97,92 %
30.08.2022 05:28 17,2 C 16,1 C 12,8 C 84 % 1020,0 hPa 0,0 l/m 0 min 0 min 0 W/m 3,2 km/h (1 Bft) 97,87 %
30.08.2022 05:30 17,1 C 16,1 C 12,8 C 84 % 1020,0 hPa 0,0 l/m 0 min 0 min 0 W/m 3,2 km/h (1 Bft) 97,87 %
30.08.2022 05:32 17,1 C 16,1 C 12,8 C 84 % 1020,0 hPa 0,0 l/m 0 min 0 min 0 W/m 3,2 km/h (1 Bft) 95,65 %
30.08.2022 05:34 17,1 C 16,1 C 12,8 C 84 % 1020,0 hPa 0,0 l/m 0 min 0 min 0 W/m 3,2 km/h (1 Bft) 97,87 %
30.08.2022 05:36 17,0 C 16,1 C 12,8 C 84 % 1020,0 hPa 0,0 l/m 0 min 0 min 0 W/m 3,2 km/h (1 Bft) 98,31 %
30.08.2022 05:38 17,0 C 16,1 C 12,8 C 84 % 1020,0 hPa 0,0 l/m 0 min 0 min 0 W/m 3,2 km/h (1 Bft) 97,14 %
30.08.2022 05:40 16,9 C 16,1 C 12,8 C 84 % 1020,0 hPa 0,0 l/m 0 min 0 min 0 W/m 3,2 km/h (1 Bft) 97,87 %
30.08.2022 05:42 16,9 C 16,1 C 12,8 C 84 % 1020,0 hPa 0,0 l/m 0 min 0 min 0 W/m 6,4 km/h (2 Bft) 95,74 %
30.08.2022 05:44 16,9 C 16,1 C 12,8 C 84 % 1019,9 hPa 0,0 l/m 0 min 0 min 0 W/m 3,2 km/h (1 Bft) 95,83 %
30.08.2022 05:46 16,9 C 16,1 C 12,8 C 84 % 1019,9 hPa 0,0 l/m 0 min 0 min 0 W/m 3,2 km/h (1 Bft) 95,83 %
30.08.2022 05:48 16,8 C 16,1 C 12,8 C 84 % 1020,0 hPa 0,0 l/m 0 min 0 min 0 W/m 3,2 km/h (1 Bft) 95,74 %
30.08.2022 05:50 16,8 C 16,1 C 12,2 C 84 % 1019,9 hPa 0,0 l/m 0 min 0 min 0 W/m 6,4 km/h (2 Bft) 95,74 %
30.08.2022 05:52 16,8 C 16,1 C 12,2 C 84 % 1020,0 hPa 0,0 l/m 0 min 0 min 0 W/m 3,2 km/h (1 Bft) 95,74 %
30.08.2022 05:54 16,8 C 16,1 C 12,8 C 85 % 1019,9 hPa 0,0 l/m 0 min 0 min 0 W/m 3,2 km/h (1 Bft) 95,65 %
30.08.2022 05:56 16,8 C 16,1 C 12,8 C 85 % 1020,0 hPa 0,0 l/m 0 min 0 min 0 W/m 3,2 km/h (1 Bft) 95,74 %
30.08.2022 05:58 16,8 C 16,1 C 12,8 C 85 % 1020,0 hPa 0,0 l/m 0 min 0 min 0 W/m 3,2 km/h (1 Bft) 95,74 %
30.08.2022 06:00 16,8 C 16,1 C 12,8 C 85 % 1020,0 hPa 0,0 l/m 0 min 0 min 0 W/m 9,7 km/h (2 Bft) 95,74 %
30.08.2022 06:02 16,8 C 16,1 C 12,8 C 85 % 1020,1 hPa 0,0 l/m 0 min 0 min 0 W/m 6,4 km/h (2 Bft) 93,75 %
30.08.2022 06:04 16,8 C 16,1 C 12,8 C 85 % 1020,0 hPa 0,0 l/m 0 min 0 min 0 W/m 3,2 km/h (1 Bft) 100,00 %
30.08.2022 06:08 16,8 C 16,1 C 12,8 C 85 % 1020,0 hPa 0,0 l/m 0 min 0 min 0 W/m 6,4 km/h (2 Bft) 97,89 %
30.08.2022 06:10 16,8 C 16,1 C 12,8 C 85 % 1020,0 hPa 0,0 l/m 0 min 0 min 0 W/m 6,4 km/h (2 Bft) 93,48 %
30.08.2022 06:12 16,8 C 16,1 C 12,8 C 85 % 1020,0 hPa 0,0 l/m 0 min 0 min 0 W/m 3,2 km/h (1 Bft) 97,87 %
30.08.2022 06:14 16,9 C 16,1 C 12,8 C 85 % 1020,0 hPa 0,0 l/m 0 min 0 min 0 W/m 3,2 km/h (1 Bft) 95,74 %
30.08.2022 06:16 16,9 C 16,1 C 12,8 C 84 % 1019,9 hPa 0,0 l/m 0 min 0 min 0 W/m 3,2 km/h (1 Bft) 95,74 %
30.08.2022 06:18 16,9 C 16,1 C 12,8 C 84 % 1020,0 hPa 0,0 l/m 0 min 0 min 0 W/m 6,4 km/h (2 Bft) 97,14 %
30.08.2022 06:20 16,9 C 16,1 C 12,8 C 84 % 1020,0 hPa 0,0 l/m 0 min 0 min 0 W/m 6,4 km/h (2 Bft) 98,18 %
30.08.2022 06:22 16,9 C 16,1 C 12,8 C 85 % 1020,0 hPa 0,0 l/m 0 min 0 min 0 W/m 6,4 km/h (2 Bft) 93,62 %
30.08.2022 06:24 16,9 C 16,1 C 12,8 C 84 % 1020,1 hPa 0,0 l/m 0 min 0 min 0 W/m 6,4 km/h (2 Bft) 97,87 %
30.08.2022 06:26 16,8 C 16,1 C 12,8 C 85 % 1020,1 hPa 0,0 l/m 0 min 0 min 0 W/m 3,2 km/h (1 Bft) 97,87 %
30.08.2022 06:28 16,9 C 16,1 C 12,8 C 84 % 1020,1 hPa 0,0 l/m 0 min 0 min 0 W/m 3,2 km/h (1 Bft) 97,87 %
30.08.2022 06:30 16,9 C 16,1 C 12,8 C 85 % 1020,1 hPa 0,0 l/m 0 min 0 min 0 W/m 3,2 km/h (1 Bft) 97,87 %
30.08.2022 06:32 16,9 C 16,1 C 12,8 C 85 % 1020,1 hPa 0,0 l/m 0 min 0 min 0 W/m 3,2 km/h (1 Bft) 97,83 %
30.08.2022 06:34 16,8 C 16,1 C 12,8 C 85 % 1020,1 hPa 0,0 l/m 0 min 0 min 0 W/m 6,4 km/h (2 Bft) 97,87 %
30.08.2022 06:36 16,8 C 16,1 C 12,8 C 85 % 1020,1 hPa 0,0 l/m 0 min 0 min 0 W/m 6,4 km/h (2 Bft) 100,00 %
30.08.2022 06:38 16,8 C 16,1 C 12,8 C 85 % 1020,1 hPa 0,0 l/m 0 min 0 min 0 W/m 3,2 km/h (1 Bft) 97,87 %
30.08.2022 06:40 16,8 C 16,1 C 12,8 C 85 % 1020,1 hPa 0,0 l/m 0 min 0 min 0 W/m 3,2 km/h (1 Bft) 97,87 %
30.08.2022 06:42 16,8 C 16,1 C 12,8 C 85 % 1020,1 hPa 0,0 l/m 0 min 0 min 0 W/m 9,7 km/h (2 Bft) 95,65 %
30.08.2022 06:44 16,8 C 16,1 C 12,8 C 85 % 1020,1 hPa 0,0 l/m 0 min 0 min 0 W/m 6,4 km/h (2 Bft) 97,87 %
30.08.2022 06:46 16,8 C 16,1 C 12,8 C 85 % 1020,1 hPa 0,0 l/m 0 min 0 min 0 W/m 6,4 km/h (2 Bft) 97,87 %
30.08.2022 06:48 16,8 C 16,1 C 12,8 C 85 % 1020,1 hPa 0,0 l/m 0 min 0 min 4 W/m 3,2 km/h (1 Bft) 93,62 %
30.08.2022 06:50 16,8 C 16,1 C 12,8 C 85 % 1020,1 hPa 0,0 l/m 0 min 0 min 5 W/m 6,4 km/h (2 Bft) 97,87 %
30.08.2022 06:52 16,8 C 16,1 C 12,8 C 85 % 1020,2 hPa 0,0 l/m 0 min 0 min 5 W/m 6,4 km/h (2 Bft) 95,74 %
30.08.2022 06:54 16,8 C 16,1 C 12,8 C 85 % 1020,2 hPa 0,0 l/m 0 min 0 min 6 W/m 3,2 km/h (1 Bft) 97,83 %
30.08.2022 06:56 16,8 C 16,1 C 12,8 C 85 % 1020,2 hPa 0,0 l/m 0 min 0 min 7 W/m 6,4 km/h (2 Bft) 97,87 %
30.08.2022 06:58 16,8 C 16,1 C 12,8 C 85 % 1020,2 hPa 0,0 l/m 0 min 0 min 7 W/m 6,4 km/h (2 Bft) 97,87 %
30.08.2022 07:00 16,8 C 16,1 C 12,8 C 85 % 1020,2 hPa 0,0 l/m 0 min 0 min 9 W/m 3,2 km/h (1 Bft) 97,87 %
30.08.2022 07:02 16,8 C 16,1 C 12,8 C 85 % 1020,2 hPa 0,0 l/m 0 min 0 min 10 W/m 3,2 km/h (1 Bft) 97,92 %
30.08.2022 07:04 16,8 C 16,1 C 12,8 C 85 % 1020,3 hPa 0,0 l/m 0 min 0 min 11 W/m 3,2 km/h (1 Bft) 97,83 %
30.08.2022 07:06 16,7 C 16,1 C 12,8 C 85 % 1020,3 hPa 0,0 l/m 0 min 0 min 12 W/m 3,2 km/h (1 Bft) 93,62 %
30.08.2022 07:08 16,8 C 16,1 C 12,8 C 85 % 1020,4 hPa 0,0 l/m 0 min 0 min 14 W/m 6,4 km/h (2 Bft) 97,87 %
30.08.2022 07:10 16,7 C 16,1 C 12,8 C 85 % 1020,4 hPa 0,0 l/m 0 min 0 min 15 W/m 6,4 km/h (2 Bft) 93,62 %
30.08.2022 07:12 16,7 C 16,1 C 12,8 C 85 % 1020,4 hPa 0,0 l/m 0 min 0 min 18 W/m 6,4 km/h (2 Bft) 100,00 %
30.08.2022 07:14 16,7 C 16,1 C 12,8 C 85 % 1020,4 hPa 0,0 l/m 0 min 0 min 21 W/m 6,4 km/h (2 Bft) 100,00 %
30.08.2022 07:16 16,7 C 16,1 C 12,8 C 85 % 1020,4 hPa 0,0 l/m 0 min 0 min 22 W/m 6,4 km/h (2 Bft) 100,00 %
30.08.2022 07:18 16,7 C 16,1 C 12,8 C 85 % 1020,4 hPa 0,0 l/m 0 min 0 min 23 W/m 6,4 km/h (2 Bft) 100,00 %
30.08.2022 07:20 16,7 C 16,1 C 12,8 C 85 % 1020,4 hPa 0,0 l/m 0 min 0 min 23 W/m 3,2 km/h (1 Bft) 100,00 %
30.08.2022 07:22 16,7 C 16,1 C 12,8 C 85 % 1020,4 hPa 0,0 l/m 0 min 0 min 25 W/m 9,7 km/h (2 Bft) 97,87 %
30.08.2022 07:24 16,7 C 16,1 C 12,8 C 85 % 1020,5 hPa 0,0 l/m 0 min 0 min 26 W/m 6,4 km/h (2 Bft) 100,00 %
30.08.2022 07:26 16,7 C 16,1 C 12,8 C 85 % 1020,5 hPa 0,0 l/m 0 min 0 min 27 W/m 6,4 km/h (2 Bft) 97,87 %
30.08.2022 07:28 16,8 C 16,1 C 12,8 C 85 % 1020,5 hPa 0,0 l/m 0 min 0 min 29 W/m 3,2 km/h (1 Bft) 100,00 %
30.08.2022 07:30 16,8 C 16,1 C 12,8 C 85 % 1020,5 hPa 0,0 l/m 0 min 0 min 33 W/m 9,7 km/h (2 Bft) 100,00 %
30.08.2022 07:32 16,7 C 16,1 C 12,8 C 85 % 1020,6 hPa 0,0 l/m 0 min 0 min 39 W/m 6,4 km/h (2 Bft) 97,87 %
30.08.2022 07:34 16,8 C 16,1 C 12,8 C 85 % 1020,6 hPa 0,0 l/m 0 min 0 min 44 W/m 3,2 km/h (1 Bft) 100,00 %
30.08.2022 07:36 16,8 C 16,1 C 12,8 C 85 % 1020,5 hPa 0,0 l/m 0 min 0 min 49 W/m 3,2 km/h (1 Bft) 100,00 %
30.08.2022 07:38 16,8 C 16,1 C 12,8 C 85 % 1020,5 hPa 0,0 l/m 0 min 0 min 52 W/m 6,4 km/h (2 Bft) 100,00 %
30.08.2022 07:40 16,8 C 16,7 C 12,8 C 85 % 1020,5 hPa 0,0 l/m 0 min 0 min 55 W/m 6,4 km/h (2 Bft) 97,83 %
30.08.2022 07:42 16,8 C 16,7 C 12,8 C 85 % 1020,5 hPa 0,0 l/m 0 min 0 min 58 W/m 6,4 km/h (2 Bft) 100,00 %
30.08.2022 07:44 16,9 C 16,7 C 12,8 C 85 % 1020,5 hPa 0,0 l/m 0 min 0 min 60 W/m 3,2 km/h (1 Bft) 100,00 %
30.08.2022 07:46 16,9 C 16,7 C 12,8 C 85 % 1020,5 hPa 0,0 l/m 0 min 0 min 60 W/m 6,4 km/h (2 Bft) 97,87 %
30.08.2022 07:48 16,9 C 16,7 C 12,8 C 85 % 1020,5 hPa 0,0 l/m 0 min 0 min 60 W/m 3,2 km/h (1 Bft) 100,00 %
30.08.2022 07:50 16,9 C 16,7 C 12,8 C 85 % 1020,5 hPa 0,0 l/m 0 min 0 min 58 W/m 6,4 km/h (2 Bft) 100,00 %
30.08.2022 07:52 17,0 C 16,7 C 12,8 C 85 % 1020,5 hPa 0,0 l/m 0 min 0 min 57 W/m 6,4 km/h (2 Bft) 100,00 %
30.08.2022 07:54 17,0 C 16,7 C 12,8 C 85 % 1020,5 hPa 0,0 l/m 0 min 0 min 55 W/m 6,4 km/h (2 Bft) 97,87 %
30.08.2022 07:56 17,1 C 16,7 C 13,3 C 85 % 1020,5 hPa 0,0 l/m 0 min 0 min 50 W/m 9,7 km/h (2 Bft) 100,00 %
30.08.2022 07:58 17,1 C 16,7 C 13,3 C 85 % 1020,4 hPa 0,0 l/m 0 min 0 min 47 W/m 9,7 km/h (2 Bft) 97,87 %
30.08.2022 08:00 17,1 C 16,7 C 13,3 C 84 % 1020,5 hPa 0,0 l/m 0 min 0 min 47 W/m 9,7 km/h (2 Bft) 97,87 %
30.08.2022 08:02 17,2 C 16,7 C 13,3 C 84 % 1020,5 hPa 0,0 l/m 0 min 0 min 50 W/m 9,7 km/h (2 Bft) 95,83 %
30.08.2022 08:04 17,2 C 16,7 C 13,3 C 84 % 1020,5 hPa 0,0 l/m 0 min 0 min 52 W/m 6,4 km/h (2 Bft) 95,74 %
30.08.2022 08:06 17,2 C 16,7 C 13,3 C 84 % 1020,4 hPa 0,0 l/m 0 min 0 min 54 W/m 9,7 km/h (2 Bft) 97,87 %
30.08.2022 08:08 17,2 C 16,7 C 13,3 C 84 % 1020,4 hPa 0,0 l/m 0 min 0 min 55 W/m 6,4 km/h (2 Bft) 97,87 %
30.08.2022 08:10 17,2 C 16,7 C 13,3 C 84 % 1020,5 hPa 0,0 l/m 0 min 0 min 56 W/m 12,9 km/h (3 Bft) 97,83 %
30.08.2022 08:12 17,3 C 16,7 C 13,3 C 84 % 1020,4 hPa 0,0 l/m 0 min 0 min 56 W/m 12,9 km/h (3 Bft) 95,74 %
30.08.2022 08:14 17,3 C 16,7 C 13,3 C 84 % 1020,5 hPa 0,0 l/m 0 min 0 min 60 W/m 12,9 km/h (3 Bft) 97,87 %
30.08.2022 08:16 17,3 C 16,7 C 13,3 C 83 % 1020,5 hPa 0,0 l/m 0 min 0 min 62 W/m 22,5 km/h (4 Bft) 95,74 %
30.08.2022 08:18 17,3 C 16,7 C 13,3 C 83 % 1020,5 hPa 0,0 l/m 0 min 0 min 63 W/m 6,4 km/h (2 Bft) 97,87 %
30.08.2022 08:20 17,3 C 16,7 C 13,3 C 83 % 1020,6 hPa 0,0 l/m 0 min 0 min 66 W/m 9,7 km/h (2 Bft) 97,83 %
30.08.2022 08:22 17,4 C 17,2 C 13,3 C 84 % 1020,6 hPa 0,0 l/m 0 min 0 min 68 W/m 19,3 km/h (3 Bft) 97,87 %
30.08.2022 08:24 17,4 C 17,2 C 13,3 C 83 % 1020,5 hPa 0,0 l/m 0 min 0 min 69 W/m 12,9 km/h (3 Bft) 97,87 %
30.08.2022 08:26 17,4 C 17,2 C 13,3 C 83 % 1020,6 hPa 0,0 l/m 0 min 0 min 69 W/m 12,9 km/h (3 Bft) 97,87 %
30.08.2022 08:28 17,5 C 17,2 C 13,3 C 83 % 1020,6 hPa 0,0 l/m 0 min 0 min 68 W/m 12,9 km/h (3 Bft) 97,87 %
30.08.2022 08:30 17,5 C 17,2 C 13,3 C 83 % 1020,6 hPa 0,0 l/m 0 min 0 min 72 W/m 6,4 km/h (2 Bft) 95,74 %
30.08.2022 08:32 17,6 C 17,2 C 13,3 C 83 % 1020,6 hPa 0,0 l/m 0 min 0 min 72 W/m 12,9 km/h (3 Bft) 97,56 %
30.08.2022 08:34 17,6 C 17,2 C 13,9 C 83 % 1020,5 hPa 0,0 l/m 0 min 0 min 70 W/m 16,1 km/h (3 Bft) 93,62 %
30.08.2022 08:36 17,7 C 17,2 C 13,9 C 83 % 1020,5 hPa 0,0 l/m 0 min 0 min 69 W/m 6,4 km/h (2 Bft) 95,83 %
30.08.2022 08:38 17,7 C 17,8 C 13,9 C 82 % 1020,5 hPa 0,0 l/m 0 min 0 min 69 W/m 9,7 km/h (2 Bft) 95,74 %
30.08.2022 08:40 17,8 C 17,8 C 13,9 C 82 % 1020,5 hPa 0,0 l/m 0 min 0 min 69 W/m 9,7 km/h (2 Bft) 91,30 %
30.08.2022 08:42 17,8 C 17,8 C 13,9 C 82 % 1020,5 hPa 0,0 l/m 0 min 0 min 71 W/m 9,7 km/h (2 Bft) 93,62 %
30.08.2022 08:44 17,8 C 17,8 C 13,9 C 82 % 1020,5 hPa 0,0 l/m 0 min 0 min 77 W/m 9,7 km/h (2 Bft) 93,62 %
30.08.2022 08:46 17,9 C 17,8 C 13,9 C 82 % 1020,5 hPa 0,0 l/m 0 min 0 min 84 W/m 9,7 km/h (2 Bft) 95,74 %
30.08.2022 08:48 17,9 C 17,8 C 13,9 C 82 % 1020,6 hPa 0,0 l/m 0 min 0 min 93 W/m 22,5 km/h (4 Bft) 95,74 %
30.08.2022 08:50 18,0 C 17,8 C 13,9 C 81 % 1020,6 hPa 0,0 l/m 0 min 0 min 99 W/m 9,7 km/h (2 Bft) 95,74 %
30.08.2022 08:52 18,1 C 17,8 C 13,9 C 82 % 1020,6 hPa 0,0 l/m 0 min 0 min 104 W/m 9,7 km/h (2 Bft) 93,62 %
30.08.2022 08:54 18,1 C 18,3 C 14,4 C 82 % 1020,6 hPa 0,0 l/m 2 min 0 min 164 W/m 6,4 km/h (2 Bft) 95,65 %
30.08.2022 08:56 18,1 C 18,3 C 14,4 C 82 % 1020,6 hPa 0,0 l/m 2 min 0 min 220 W/m 9,7 km/h (2 Bft) 95,74 %
30.08.2022 08:58 18,2 C 18,3 C 14,4 C 81 % 1020,5 hPa 0,0 l/m 2 min 0 min 213 W/m 16,1 km/h (3 Bft) 93,75 %
30.08.2022 09:00 18,3 C 18,3 C 14,4 C 81 % 1020,5 hPa 0,0 l/m 2 min 0 min 246 W/m 9,7 km/h (2 Bft) 93,62 %
30.08.2022 09:02 18,3 C 18,3 C 14,4 C 81 % 1020,6 hPa 0,0 l/m 2 min 0 min 232 W/m 12,9 km/h (3 Bft) 95,74 %
30.08.2022 09:04 18,4 C 18,9 C 14,4 C 81 % 1020,5 hPa 0,0 l/m 2 min 0 min 278 W/m 9,7 km/h (2 Bft) 95,65 %
30.08.2022 09:06 18,5 C 18,9 C 14,4 C 80 % 1020,6 hPa 0,0 l/m 2 min 0 min 272 W/m 9,7 km/h (2 Bft) 97,87 %
30.08.2022 09:08 18,6 C 19,4 C 14,4 C 80 % 1020,5 hPa 0,0 l/m 2 min 0 min 297 W/m 6,4 km/h (2 Bft) 97,87 %
30.08.2022 09:10 18,7 C 20,0 C 15,0 C 80 % 1020,5 hPa 0,0 l/m 2 min 0 min 285 W/m 12,9 km/h (3 Bft) 97,87 %
30.08.2022 09:12 18,7 C 20,0 C 15,0 C 80 % 1020,5 hPa 0,0 l/m 2 min 0 min 270 W/m 9,7 km/h (2 Bft) 97,87 %
30.08.2022 09:14 18,8 C 20,0 C 15,0 C 79 % 1020,5 hPa 0,0 l/m 2 min 0 min 246 W/m 12,9 km/h (3 Bft) 95,74 %
30.08.2022 09:16 18,9 C 19,4 C 15,0 C 79 % 1020,5 hPa 0,0 l/m 0 min 0 min 168 W/m 19,3 km/h (3 Bft) 97,87 %
30.08.2022 09:18 18,9 C 19,4 C 15,0 C 79 % 1020,5 hPa 0,0 l/m 0 min 0 min 138 W/m 9,7 km/h (2 Bft) 97,83 %
30.08.2022 09:20 18,9 C 18,9 C 15,0 C 79 % 1020,5 hPa 0,0 l/m 0 min 0 min 128 W/m 6,4 km/h (2 Bft) 97,87 %
30.08.2022 09:22 18,9 C 18,9 C 15,0 C 78 % 1020,5 hPa 0,0 l/m 0 min 0 min 122 W/m 12,9 km/h (3 Bft) 100,00 %
30.08.2022 09:24 19,0 C 18,9 C 15,0 C 78 % 1020,5 hPa 0,0 l/m 0 min 0 min 121 W/m 6,4 km/h (2 Bft) 100,00 %
30.08.2022 09:26 19,0 C 18,9 C 15,0 C 79 % 1020,6 hPa 0,0 l/m 0 min 0 min 131 W/m 6,4 km/h (2 Bft) 100,00 %
30.08.2022 09:28 19,0 C 18,9 C 15,0 C 78 % 1020,6 hPa 0,0 l/m 0 min 0 min 132 W/m 12,9 km/h (3 Bft) 100,00 %
30.08.2022 09:30 19,0 C 18,9 C 15,0 C 78 % 1020,6 hPa 0,0 l/m 0 min 0 min 152 W/m 16,1 km/h (3 Bft) 100,00 %
30.08.2022 09:32 19,0 C 18,9 C 15,0 C 78 % 1020,6 hPa 0,0 l/m 0 min 0 min 166 W/m 12,9 km/h (3 Bft) 95,74 %
30.08.2022 09:34 19,0 C 18,9 C 15,0 C 78 % 1020,6 hPa 0,0 l/m 0 min 0 min 172 W/m 9,7 km/h (2 Bft) 100,00 %
30.08.2022 09:36 19,1 C 18,9 C 15,0 C 78 % 1020,6 hPa 0,0 l/m 0 min 0 min 176 W/m 9,7 km/h (2 Bft) 97,87 %
30.08.2022 09:38 19,1 C 18,9 C 15,0 C 78 % 1020,6 hPa 0,0 l/m 0 min 0 min 183 W/m 9,7 km/h (2 Bft) 100,00 %
30.08.2022 09:40 19,1 C 19,4 C 15,0 C 78 % 1020,6 hPa 0,0 l/m 0 min 0 min 203 W/m 6,4 km/h (2 Bft) 100,00 %
30.08.2022 09:42 19,2 C 19,4 C 15,6 C 78 % 1020,6 hPa 0,0 l/m 0 min 0 min 191 W/m 12,9 km/h (3 Bft) 100,00 %
30.08.2022 09:44 19,3 C 19,4 C 15,6 C 78 % 1020,7 hPa 0,0 l/m 0 min 0 min 178 W/m 19,3 km/h (3 Bft) 100,00 %
30.08.2022 09:46 19,3 C 19,4 C 15,6 C 78 % 1020,7 hPa 0,0 l/m 0 min 0 min 165 W/m 9,7 km/h (2 Bft) 100,00 %
30.08.2022 09:48 19,4 C 19,4 C 15,6 C 78 % 1020,6 hPa 0,0 l/m 0 min 0 min 161 W/m 12,9 km/h (3 Bft) 97,87 %
30.08.2022 09:50 19,4 C 19,4 C 15,6 C 78 % 1020,7 hPa 0,0 l/m 0 min 0 min 163 W/m 12,9 km/h (3 Bft) 100,00 %
30.08.2022 09:52 19,5 C 19,4 C 15,6 C 77 % 1020,7 hPa 0,0 l/m 0 min 0 min 161 W/m 12,9 km/h (3 Bft) 97,83 %
30.08.2022 09:54 19,6 C 19,4 C 15,6 C 77 % 1020,7 hPa 0,0 l/m 0 min 0 min 161 W/m 9,7 km/h (2 Bft) 100,00 %
30.08.2022 09:56 19,6 C 20,0 C 15,6 C 77 % 1020,7 hPa 0,0 l/m 0 min 0 min 157 W/m 9,7 km/h (2 Bft) 100,00 %
30.08.2022 09:58 19,7 C 20,0 C 15,6 C 77 % 1020,7 hPa 0,0 l/m 0 min 0 min 162 W/m 9,7 km/h (2 Bft) 100,00 %
30.08.2022 10:00 19,7 C 19,4 C 15,6 C 77 % 1020,7 hPa 0,0 l/m 0 min 0 min 159 W/m 6,4 km/h (2 Bft) 100,00 %
30.08.2022 10:02 19,7 C 20,0 C 15,6 C 77 % 1020,7 hPa 0,0 l/m 0 min 0 min 161 W/m 9,7 km/h (2 Bft) 100,00 %
30.08.2022 10:04 19,7 C 20,0 C 15,6 C 76 % 1020,7 hPa 0,0 l/m 0 min 0 min 166 W/m 9,7 km/h (2 Bft) 97,83 %
30.08.2022 10:06 19,8 C 20,0 C 15,6 C 77 % 1020,7 hPa 0,0 l/m 0 min 0 min 166 W/m 9,7 km/h (2 Bft) 100,00 %
30.08.2022 10:08 19,8 C 20,0 C 15,6 C 77 % 1020,7 hPa 0,0 l/m 0 min 0 min 178 W/m 16,1 km/h (3 Bft) 100,00 %
30.08.2022 10:10 19,8 C 20,0 C 15,6 C 76 % 1020,7 hPa 0,0 l/m 0 min 0 min 190 W/m 9,7 km/h (2 Bft) 100,00 %
30.08.2022 10:12 19,8 C 20,0 C 16,1 C 76 % 1020,7 hPa 0,0 l/m 0 min 0 min 218 W/m 12,9 km/h (3 Bft) 100,00 %
30.08.2022 10:14 19,9 C 20,0 C 16,1 C 76 % 1020,7 hPa 0,0 l/m 2 min 0 min 254 W/m 12,9 km/h (3 Bft) 100,00 %
30.08.2022 10:16 19,9 C 20,6 C 16,1 C 76 % 1020,8 hPa 0,0 l/m 2 min 0 min 272 W/m 9,7 km/h (2 Bft) 97,83 %
30.08.2022 10:18 20,1 C 20,6 C 16,7 C 76 % 1020,7 hPa 0,0 l/m 2 min 0 min 276 W/m 9,7 km/h (2 Bft) 100,00 %
30.08.2022 10:20 20,2 C 21,1 C 16,7 C 76 % 1020,7 hPa 0,0 l/m 0 min 0 min 243 W/m 9,7 km/h (2 Bft) 100,00 %
30.08.2022 10:22 20,3 C 20,6 C 16,7 C 76 % 1020,7 hPa 0,0 l/m 0 min 0 min 226 W/m 12,9 km/h (3 Bft) 97,87 %
30.08.2022 10:24 20,3 C 20,6 C 16,7 C 75 % 1020,7 hPa 0,0 l/m 0 min 0 min 229 W/m 12,9 km/h (3 Bft) 100,00 %
30.08.2022 10:26 20,4 C 21,1 C 16,7 C 75 % 1020,7 hPa 0,0 l/m 0 min 0 min 254 W/m 9,7 km/h (2 Bft) 100,00 %
30.08.2022 10:28 20,5 C 21,1 C 16,7 C 75 % 1020,7 hPa 0,0 l/m 2 min 0 min 282 W/m 12,9 km/h (3 Bft) 97,83 %
30.08.2022 10:30 20,6 C 21,1 C 16,7 C 75 % 1020,7 hPa 0,0 l/m 2 min 0 min 353 W/m 6,4 km/h (2 Bft) 100,00 %
30.08.2022 10:32 20,7 C 21,7 C 17,2 C 75 % 1020,7 hPa 0,0 l/m 2 min 0 min 404 W/m 16,1 km/h (3 Bft) 100,00 %
30.08.2022 10:34 20,7 C 21,7 C 17,2 C 74 % 1020,7 hPa 0,0 l/m 2 min 0 min 325 W/m 12,9 km/h (3 Bft) 97,87 %
30.08.2022 10:36 20,8 C 21,7 C 17,2 C 74 % 1020,8 hPa 0,0 l/m 2 min 0 min 276 W/m 6,4 km/h (2 Bft) 97,87 %
30.08.2022 10:38 20,9 C 21,7 C 17,2 C 73 % 1020,7 hPa 0,0 l/m 0 min 0 min 268 W/m 12,9 km/h (3 Bft) 97,87 %
30.08.2022 10:40 20,9 C 21,7 C 17,2 C 73 % 1020,8 hPa 0,0 l/m 0 min 0 min 266 W/m 16,1 km/h (3 Bft) 97,83 %
30.08.2022 10:42 21,0 C 21,7 C 17,2 C 73 % 1020,8 hPa 0,0 l/m 0 min 0 min 279 W/m 9,7 km/h (2 Bft) 97,87 %
30.08.2022 10:44 21,1 C 21,7 C 17,2 C 73 % 1020,7 hPa 0,0 l/m 0 min 0 min 271 W/m 6,4 km/h (2 Bft) 91,49 %
30.08.2022 10:46 21,1 C 21,1 C 17,2 C 73 % 1020,8 hPa 0,0 l/m 0 min 0 min 249 W/m 9,7 km/h (2 Bft) 97,87 %
30.08.2022 10:48 21,1 C 21,1 C 17,2 C 73 % 1020,8 hPa 0,0 l/m 0 min 0 min 230 W/m 12,9 km/h (3 Bft) 97,87 %
30.08.2022 10:50 21,1 C 21,1 C 17,2 C 72 % 1020,8 hPa 0,0 l/m 0 min 0 min 217 W/m 16,1 km/h (3 Bft) 95,74 %
30.08.2022 10:52 21,1 C 21,1 C 17,2 C 72 % 1020,8 hPa 0,0 l/m 0 min 0 min 217 W/m 9,7 km/h (2 Bft) 97,83 %
30.08.2022 10:54 21,1 C 21,1 C 17,2 C 72 % 1020,8 hPa 0,0 l/m 0 min 0 min 216 W/m 16,1 km/h (3 Bft) 95,74 %
30.08.2022 10:56 21,1 C 21,1 C 17,2 C 72 % 1020,8 hPa 0,0 l/m 0 min 0 min 226 W/m 19,3 km/h (3 Bft) 97,87 %
30.08.2022 10:58 21,1 C 21,1 C 17,2 C 72 % 1020,8 hPa 0,0 l/m 0 min 0 min 238 W/m 9,7 km/h (2 Bft) 97,87 %
30.08.2022 11:00 21,1 C 21,1 C 17,2 C 72 % 1020,8 hPa 0,0 l/m 0 min 0 min 221 W/m 12,9 km/h (3 Bft) 95,74 %
30.08.2022 11:02 21,1 C 21,1 C 17,2 C 72 % 1020,8 hPa 0,0 l/m 0 min 0 min 218 W/m 12,9 km/h (3 Bft) 97,92 %
30.08.2022 11:04 21,1 C 21,1 C 17,2 C 72 % 1020,8 hPa 0,0 l/m 0 min 0 min 222 W/m 16,1 km/h (3 Bft) 97,83 %
30.08.2022 11:06 21,1 C 21,1 C 17,2 C 72 % 1020,8 hPa 0,0 l/m 0 min 0 min 269 W/m 12,9 km/h (3 Bft) 95,74 %
30.08.2022 11:08 21,2 C 21,7 C 17,2 C 72 % 1020,7 hPa 0,0 l/m 2 min 0 min 341 W/m 9,7 km/h (2 Bft) 97,87 %
30.08.2022 11:10 21,2 C 21,7 C 17,2 C 72 % 1020,7 hPa 0,0 l/m 2 min 0 min 498 W/m 12,9 km/h (3 Bft) 97,92 %
30.08.2022 11:12 21,3 C 21,7 C 17,8 C 71 % 1020,8 hPa 0,0 l/m 2 min 0 min 507 W/m 9,7 km/h (2 Bft) 95,83 %
30.08.2022 11:14 21,4 C 21,7 C 17,8 C 71 % 1020,8 hPa 0,0 l/m 2 min 0 min 330 W/m 19,3 km/h (3 Bft) 91,30 %
30.08.2022 11:16 21,4 C 21,7 C 17,8 C 71 % 1020,8 hPa 0,0 l/m 0 min 0 min 259 W/m 16,1 km/h (3 Bft) 95,74 %
30.08.2022 11:18 21,5 C 21,7 C 17,8 C 71 % 1020,7 hPa 0,0 l/m 0 min 0 min 241 W/m 19,3 km/h (3 Bft) 95,74 %
30.08.2022 11:20 21,5 C 21,7 C 17,8 C 71 % 1020,7 hPa 0,0 l/m 0 min 0 min 234 W/m 9,7 km/h (2 Bft) 95,74 %
30.08.2022 11:22 21,5 C 21,7 C 17,8 C 70 % 1020,7 hPa 0,0 l/m 0 min 0 min 258 W/m 12,9 km/h (3 Bft) 95,74 %
30.08.2022 11:24 21,6 C 21,7 C 17,8 C 70 % 1020,7 hPa 0,0 l/m 0 min 0 min 274 W/m 6,4 km/h (2 Bft) 95,74 %
30.08.2022 11:26 21,6 C 22,2 C 17,8 C 70 % 1020,7 hPa 0,0 l/m 0 min 0 min 274 W/m 12,9 km/h (3 Bft) 95,65 %
30.08.2022 11:28 21,7 C 22,8 C 17,8 C 70 % 1020,7 hPa 0,0 l/m 0 min 0 min 292 W/m 12,9 km/h (3 Bft) 93,62 %
30.08.2022 11:30 21,8 C 22,8 C 18,3 C 70 % 1020,6 hPa 0,0 l/m 2 min 0 min 358 W/m 16,1 km/h (3 Bft) 93,62 %
30.08.2022 11:32 21,8 C 22,8 C 18,3 C 69 % 1020,7 hPa 0,0 l/m 2 min 0 min 355 W/m 19,3 km/h (3 Bft) 95,74 %
30.08.2022 11:34 21,9 C 22,8 C 18,3 C 69 % 1020,7 hPa 0,0 l/m 2 min 0 min 458 W/m 19,3 km/h (3 Bft) 95,74 %
30.08.2022 11:36 21,9 C 22,8 C 18,3 C 69 % 1020,6 hPa 0,0 l/m 2 min 0 min 392 W/m 22,5 km/h (4 Bft) 95,74 %
30.08.2022 11:38 22,0 C 22,2 C 18,3 C 69 % 1020,6 hPa 0,0 l/m 0 min 0 min 249 W/m 12,9 km/h (3 Bft) 95,74 %
30.08.2022 11:40 22,0 C 22,2 C 18,3 C 69 % 1020,6 hPa 0,0 l/m 0 min 0 min 254 W/m 12,9 km/h (3 Bft) 95,74 %
30.08.2022 11:42 22,0 C 22,8 C 18,3 C 69 % 1020,7 hPa 0,0 l/m 0 min 0 min 258 W/m 12,9 km/h (3 Bft) 95,65 %
30.08.2022 11:44 22,1 C 22,8 C 18,3 C 69 % 1020,6 hPa 0,0 l/m 0 min 0 min 288 W/m 9,7 km/h (2 Bft) 95,74 %
30.08.2022 11:46 22,1 C 23,3 C 18,3 C 69 % 1020,6 hPa 0,0 l/m 0 min 0 min 324 W/m 12,9 km/h (3 Bft) 95,74 %
30.08.2022 11:48 22,1 C 22,8 C 18,3 C 68 % 1020,7 hPa 0,0 l/m 2 min 0 min 333 W/m 12,9 km/h (3 Bft) 93,62 %
30.08.2022 11:50 22,2 C 22,8 C 18,3 C 68 % 1020,6 hPa 0,0 l/m 0 min 0 min 283 W/m 16,1 km/h (3 Bft) 95,74 %
30.08.2022 11:52 22,2 C 23,3 C 18,3 C 69 % 1020,6 hPa 0,0 l/m 0 min 0 min 264 W/m 9,7 km/h (2 Bft) 97,87 %
30.08.2022 11:54 22,3 C 23,9 C 18,9 C 69 % 1020,6 hPa 0,0 l/m 2 min 0 min 549 W/m 19,3 km/h (3 Bft) 97,83 %
30.08.2022 11:56 22,4 C 23,9 C 18,9 C 68 % 1020,6 hPa 0,0 l/m 0 min 0 min 268 W/m 9,7 km/h (2 Bft) 95,74 %
30.08.2022 11:58 22,5 C 24,4 C 19,4 C 68 % 1020,6 hPa 0,0 l/m 0 min 0 min 250 W/m 19,3 km/h (3 Bft) 95,74 %
30.08.2022 12:00 22,5 C 25,0 C 20,0 C 68 % 1020,6 hPa 0,0 l/m 2 min 0 min 366 W/m 9,7 km/h (2 Bft) 97,87 %
30.08.2022 12:02 22,6 C 26,1 C 20,6 C 68 % 1020,6 hPa 0,0 l/m 2 min 0 min 547 W/m 16,1 km/h (3 Bft) 97,14 %
30.08.2022 12:04 22,7 C 26,1 C 20,6 C 67 % 1020,6 hPa 0,0 l/m 2 min 0 min 455 W/m 16,1 km/h (3 Bft) 100,00 %
30.08.2022 12:08 22,9 C 27,2 C 21,1 C 67 % 1020,6 hPa 0,0 l/m 4 min 0 min 516 W/m 22,5 km/h (4 Bft) 100,00 %
30.08.2022 12:10 23,0 C 27,2 C 21,7 C 66 % 1020,5 hPa 0,0 l/m 2 min 0 min 617 W/m 16,1 km/h (3 Bft) 100,00 %
30.08.2022 12:12 23,1 C 26,1 C 21,1 C 66 % 1020,6 hPa 0,0 l/m 2 min 0 min 659 W/m 19,3 km/h (3 Bft) 100,00 %
30.08.2022 12:14 23,2 C 25,6 C 20,6 C 65 % 1020,6 hPa 0,0 l/m 2 min 0 min 370 W/m 16,1 km/h (3 Bft) 100,00 %
30.08.2022 12:16 23,2 C 25,0 C 20,0 C 66 % 1020,6 hPa 0,0 l/m 0 min 0 min 330 W/m 22,5 km/h (4 Bft) 97,87 %
30.08.2022 12:18 23,3 C 24,4 C 20,0 C 66 % 1020,6 hPa 0,0 l/m 0 min 0 min 319 W/m 9,7 km/h (2 Bft) 100,00 %
30.08.2022 12:20 23,3 C 24,4 C 19,4 C 65 % 1020,6 hPa 0,0 l/m 0 min 0 min 316 W/m 12,9 km/h (3 Bft) 100,00 %
30.08.2022 12:22 23,3 C 24,4 C 19,4 C 66 % 1020,6 hPa 0,0 l/m 0 min 0 min 303 W/m 16,1 km/h (3 Bft) 100,00 %
30.08.2022 12:24 23,3 C 23,9 C 19,4 C 65 % 1020,6 hPa 0,0 l/m 0 min 0 min 290 W/m 12,9 km/h (3 Bft) 100,00 %
30.08.2022 12:26 23,2 C 23,3 C 18,9 C 64 % 1020,6 hPa 0,0 l/m 0 min 0 min 302 W/m 16,1 km/h (3 Bft) 100,00 %
30.08.2022 12:28 23,2 C 23,9 C 19,4 C 66 % 1020,5 hPa 0,0 l/m 0 min 0 min 340 W/m 16,1 km/h (3 Bft) 97,87 %
30.08.2022 12:30 23,2 C 23,9 C 19,4 C 65 % 1020,5 hPa 0,0 l/m 2 min 0 min 355 W/m 12,9 km/h (3 Bft) 97,87 %
30.08.2022 12:32 23,3 C 25,0 C 19,4 C 65 % 1020,5 hPa 0,0 l/m 2 min 0 min 470 W/m 19,3 km/h (3 Bft) 100,00 %
30.08.2022 12:34 23,3 C 25,0 C 19,4 C 65 % 1020,5 hPa 0,0 l/m 2 min 0 min 691 W/m 19,3 km/h (3 Bft) 100,00 %
30.08.2022 12:36 23,4 C 25,0 C 19,4 C 65 % 1020,5 hPa 0,0 l/m 2 min 0 min 543 W/m 16,1 km/h (3 Bft) 97,87 %
30.08.2022 12:38 23,4 C 24,4 C 19,4 C 64 % 1020,5 hPa 0,0 l/m 2 min 0 min 419 W/m 9,7 km/h (2 Bft) 100,00 %
30.08.2022 12:40 23,4 C 24,4 C 20,0 C 64 % 1020,5 hPa 0,0 l/m 0 min 0 min 347 W/m 19,3 km/h (3 Bft) 97,83 %
30.08.2022 12:42 23,5 C 24,4 C 19,4 C 64 % 1020,6 hPa 0,0 l/m 0 min 0 min 307 W/m 16,1 km/h (3 Bft) 97,87 %
30.08.2022 12:44 23,5 C 23,9 C 19,4 C 64 % 1020,6 hPa 0,0 l/m 0 min 0 min 284 W/m 12,9 km/h (3 Bft) 95,74 %
30.08.2022 12:46 23,5 C 23,9 C 19,4 C 64 % 1020,6 hPa 0,0 l/m 0 min 0 min 268 W/m 19,3 km/h (3 Bft) 97,87 %
30.08.2022 12:48 23,5 C 23,9 C 19,4 C 64 % 1020,6 hPa 0,0 l/m 0 min 0 min 265 W/m 9,7 km/h (2 Bft) 97,87 %
30.08.2022 12:50 23,6 C 23,9 C 19,4 C 64 % 1020,5 hPa 0,0 l/m 0 min 0 min 313 W/m 12,9 km/h (3 Bft) 97,87 %
30.08.2022 12:52 23,6 C 23,9 C 19,4 C 63 % 1020,5 hPa 0,0 l/m 0 min 0 min 270 W/m 19,3 km/h (3 Bft) 97,83 %
30.08.2022 12:54 23,6 C 23,9 C 19,4 C 63 % 1020,5 hPa 0,0 l/m 0 min 0 min 286 W/m 9,7 km/h (2 Bft) 97,87 %
30.08.2022 12:56 23,5 C 23,9 C 19,4 C 63 % 1020,5 hPa 0,0 l/m 0 min 0 min 319 W/m 12,9 km/h (3 Bft) 97,87 %
30.08.2022 12:58 23,6 C 23,9 C 19,4 C 64 % 1020,5 hPa 0,0 l/m 0 min 0 min 332 W/m 16,1 km/h (3 Bft) 97,87 %
30.08.2022 13:00 23,6 C 24,4 C 20,0 C 64 % 1020,5 hPa 0,0 l/m 0 min 0 min 348 W/m 12,9 km/h (3 Bft) 95,74 %
30.08.2022 13:02 23,6 C 24,4 C 20,0 C 64 % 1020,5 hPa 0,0 l/m 0 min 0 min 329 W/m 12,9 km/h (3 Bft) 95,65 %
30.08.2022 13:04 23,6 C 24,4 C 19,4 C 63 % 1020,5 hPa 0,0 l/m 0 min 0 min 305 W/m 12,9 km/h (3 Bft) 97,87 %
30.08.2022 13:06 23,7 C 24,4 C 20,0 C 64 % 1020,4 hPa 0,0 l/m 0 min 0 min 318 W/m 12,9 km/h (3 Bft) 97,87 %
30.08.2022 13:08 23,7 C 24,4 C 20,0 C 63 % 1020,4 hPa 0,0 l/m 0 min 0 min 313 W/m 12,9 km/h (3 Bft) 95,74 %
30.08.2022 13:10 23,7 C 24,4 C 20,0 C 63 % 1020,4 hPa 0,0 l/m 2 min 0 min 408 W/m 19,3 km/h (3 Bft) 97,87 %
30.08.2022 13:12 23,8 C 24,4 C 20,0 C 62 % 1020,4 hPa 0,0 l/m 2 min 0 min 368 W/m 19,3 km/h (3 Bft) 97,87 %
30.08.2022 13:14 23,9 C 24,4 C 20,0 C 63 % 1020,4 hPa 0,0 l/m 0 min 0 min 311 W/m 9,7 km/h (2 Bft) 100,00 %
30.08.2022 13:16 23,9 C 24,4 C 20,0 C 63 % 1020,4 hPa 0,0 l/m 0 min 0 min 306 W/m 12,9 km/h (3 Bft) 100,00 %
30.08.2022 13:18 24,1 C 25,0 C 20,0 C 63 % 1020,4 hPa 0,0 l/m 2 min 0 min 442 W/m 12,9 km/h (3 Bft) 100,00 %
30.08.2022 13:20 24,1 C 25,0 C 20,0 C 63 % 1020,3 hPa 0,0 l/m 2 min 0 min 605 W/m 9,7 km/h (2 Bft) 100,00 %
30.08.2022 13:22 24,2 C 25,0 C 20,6 C 63 % 1020,4 hPa 0,0 l/m 2 min 0 min 472 W/m 9,7 km/h (2 Bft) 97,87 %
30.08.2022 13:24 24,3 C 25,0 C 20,6 C 62 % 1020,3 hPa 0,0 l/m 2 min 0 min 507 W/m 22,5 km/h (4 Bft) 100,00 %
30.08.2022 13:26 24,4 C 25,0 C 20,6 C 62 % 1020,3 hPa 0,0 l/m 2 min 0 min 480 W/m 12,9 km/h (3 Bft) 100,00 %
30.08.2022 13:28 24,4 C 25,0 C 20,6 C 62 % 1020,3 hPa 0,0 l/m 2 min 0 min 381 W/m 12,9 km/h (3 Bft) 100,00 %
30.08.2022 13:30 24,5 C 25,0 C 20,6 C 61 % 1020,4 hPa 0,0 l/m 2 min 0 min 442 W/m 19,3 km/h (3 Bft) 100,00 %
30.08.2022 13:32 24,6 C 25,0 C 20,6 C 61 % 1020,3 hPa 0,0 l/m 2 min 0 min 533 W/m 19,3 km/h (3 Bft) 97,87 %
30.08.2022 13:34 24,6 C 25,0 C 20,6 C 61 % 1020,3 hPa 0,0 l/m 2 min 0 min 550 W/m 12,9 km/h (3 Bft) 100,00 %
30.08.2022 13:36 24,7 C 25,6 C 20,6 C 62 % 1020,3 hPa 0,0 l/m 2 min 0 min 592 W/m 16,1 km/h (3 Bft) 97,87 %
30.08.2022 13:38 24,7 C 25,6 C 20,6 C 61 % 1020,3 hPa 0,0 l/m 2 min 0 min 583 W/m 12,9 km/h (3 Bft) 100,00 %
30.08.2022 13:40 24,7 C 25,6 C 20,6 C 61 % 1020,3 hPa 0,0 l/m 2 min 0 min 569 W/m 9,7 km/h (2 Bft) 100,00 %
30.08.2022 13:42 24,8 C 25,6 C 20,6 C 61 % 1020,3 hPa 0,0 l/m 2 min 0 min 548 W/m 16,1 km/h (3 Bft) 97,92 %
30.08.2022 13:44 24,8 C 25,6 C 20,6 C 60 % 1020,3 hPa 0,0 l/m 2 min 0 min 528 W/m 16,1 km/h (3 Bft) 97,87 %
30.08.2022 13:46 24,8 C 26,1 C 20,6 C 61 % 1020,3 hPa 0,0 l/m 2 min 0 min 517 W/m 12,9 km/h (3 Bft) 97,87 %
30.08.2022 13:48 24,8 C 26,1 C 20,6 C 61 % 1020,3 hPa 0,0 l/m 2 min 0 min 512 W/m 12,9 km/h (3 Bft) 97,87 %
30.08.2022 13:50 24,9 C 26,1 C 20,6 C 60 % 1020,2 hPa 0,0 l/m 2 min 0 min 494 W/m 12,9 km/h (3 Bft) 93,48 %
30.08.2022 13:52 24,9 C 26,1 C 20,6 C 60 % 1020,2 hPa 0,0 l/m 2 min 0 min 476 W/m 9,7 km/h (2 Bft) 93,62 %
30.08.2022 13:54 24,8 C 26,1 C 20,6 C 60 % 1020,2 hPa 0,0 l/m 2 min 0 min 459 W/m 22,5 km/h (4 Bft) 97,87 %
30.08.2022 13:56 24,8 C 26,7 C 20,6 C 60 % 1020,2 hPa 0,0 l/m 2 min 0 min 528 W/m 12,9 km/h (3 Bft) 93,62 %
30.08.2022 13:58 24,8 C 26,7 C 20,6 C 60 % 1020,1 hPa 0,0 l/m 2 min 0 min 550 W/m 16,1 km/h (3 Bft) 97,87 %
30.08.2022 14:00 24,9 C 27,2 C 20,6 C 61 % 1020,1 hPa 0,0 l/m 2 min 0 min 543 W/m 16,1 km/h (3 Bft) 97,87 %
30.08.2022 14:02 24,9 C 27,8 C 20,6 C 61 % 1020,1 hPa 0,0 l/m 2 min 0 min 603 W/m 16,1 km/h (3 Bft) 97,87 %
30.08.2022 14:04 25,0 C 27,8 C 20,6 C 60 % 1020,1 hPa 0,0 l/m 2 min 0 min 596 W/m 16,1 km/h (3 Bft) 95,74 %
30.08.2022 14:06 25,1 C 27,8 C 20,6 C 60 % 1020,1 hPa 0,0 l/m 2 min 0 min 585 W/m 25,7 km/h (4 Bft) 97,87 %
30.08.2022 14:08 25,2 C 28,3 C 20,6 C 59 % 1020,1 hPa 0,0 l/m 2 min 0 min 622 W/m 19,3 km/h (3 Bft) 95,74 %
30.08.2022 14:10 25,2 C 27,8 C 20,6 C 59 % 1020,0 hPa 0,0 l/m 2 min 0 min 611 W/m 12,9 km/h (3 Bft) 97,87 %
30.08.2022 14:12 25,2 C 27,8 C 20,6 C 59 % 1020,0 hPa 0,0 l/m 2 min 0 min 586 W/m 16,1 km/h (3 Bft) 97,87 %
30.08.2022 14:14 25,2 C 27,8 C 20,6 C 59 % 1020,1 hPa 0,0 l/m 2 min 0 min 556 W/m 22,5 km/h (4 Bft) 95,65 %
30.08.2022 14:16 25,2 C 27,8 C 20,6 C 59 % 1020,1 hPa 0,0 l/m 2 min 0 min 578 W/m 16,1 km/h (3 Bft) 97,87 %
30.08.2022 14:18 25,2 C 28,3 C 20,6 C 59 % 1020,1 hPa 0,0 l/m 2 min 0 min 540 W/m 12,9 km/h (3 Bft) 97,87 %
30.08.2022 14:20 25,2 C 28,3 C 20,6 C 59 % 1020,0 hPa 0,0 l/m 2 min 0 min 541 W/m 12,9 km/h (3 Bft) 97,87 %
30.08.2022 14:22 25,3 C 28,3 C 20,6 C 58 % 1020,0 hPa 0,0 l/m 2 min 0 min 560 W/m 16,1 km/h (3 Bft) 95,74 %
30.08.2022 14:24 25,3 C 28,3 C 20,6 C 58 % 1019,9 hPa 0,0 l/m 2 min 0 min 575 W/m 22,5 km/h (4 Bft) 97,87 %
30.08.2022 14:26 25,3 C 28,9 C 20,6 C 59 % 1019,9 hPa 0,0 l/m 2 min 0 min 532 W/m 9,7 km/h (2 Bft) 97,83 %
30.08.2022 14:28 25,3 C 28,3 C 21,1 C 58 % 1019,9 hPa 0,0 l/m 2 min 0 min 463 W/m 19,3 km/h (3 Bft) 97,87 %
30.08.2022 14:30 25,4 C 28,3 C 21,1 C 58 % 1019,9 hPa 0,0 l/m 2 min 0 min 403 W/m 9,7 km/h (2 Bft) 97,87 %
30.08.2022 14:32 25,4 C 27,2 C 20,6 C 58 % 1019,9 hPa 0,0 l/m 2 min 0 min 415 W/m 16,1 km/h (3 Bft) 95,74 %
30.08.2022 14:34 25,4 C 27,2 C 21,1 C 58 % 1019,9 hPa 0,0 l/m 2 min 0 min 438 W/m 12,9 km/h (3 Bft) 95,74 %
30.08.2022 14:36 25,4 C 27,2 C 21,1 C 58 % 1019,9 hPa 0,0 l/m 2 min 0 min 452 W/m 12,9 km/h (3 Bft) 97,87 %
30.08.2022 14:38 25,4 C 27,2 C 20,6 C 58 % 1019,9 hPa 0,0 l/m 2 min 0 min 498 W/m 9,7 km/h (2 Bft) 97,83 %
30.08.2022 14:40 25,4 C 27,2 C 20,6 C 57 % 1019,9 hPa 0,0 l/m 2 min 0 min 492 W/m 12,9 km/h (3 Bft) 95,83 %
30.08.2022 14:42 25,3 C 26,7 C 20,6 C 57 % 1019,9 hPa 0,0 l/m 2 min 0 min 473 W/m 19,3 km/h (3 Bft) 95,74 %
30.08.2022 14:44 25,3 C 27,2 C 20,6 C 58 % 1019,9 hPa 0,0 l/m 2 min 0 min 473 W/m 6,4 km/h (2 Bft) 93,62 %
30.08.2022 14:46 25,3 C 27,2 C 21,1 C 57 % 1019,9 hPa 0,0 l/m 2 min 0 min 464 W/m 12,9 km/h (3 Bft) 95,74 %
30.08.2022 14:48 25,3 C 27,2 C 21,1 C 57 % 1019,9 hPa 0,0 l/m 2 min 0 min 489 W/m 12,9 km/h (3 Bft) 93,48 %
30.08.2022 14:50 25,4 C 27,2 C 21,1 C 58 % 1019,9 hPa 0,0 l/m 2 min 0 min 493 W/m 6,4 km/h (2 Bft) 93,62 %
30.08.2022 14:52 25,5 C 27,8 C 21,1 C 57 % 1019,9 hPa 0,0 l/m 2 min 0 min 470 W/m 12,9 km/h (3 Bft) 95,74 %
30.08.2022 14:54 25,6 C 27,8 C 21,1 C 57 % 1019,9 hPa 0,0 l/m 2 min 0 min 472 W/m 16,1 km/h (3 Bft) 95,74 %
30.08.2022 14:56 25,6 C 27,8 C 21,1 C 57 % 1019,9 hPa 0,0 l/m 2 min 0 min 471 W/m 25,7 km/h (4 Bft) 94,29 %
30.08.2022 14:58 25,6 C 27,2 C 21,1 C 57 % 1019,9 hPa 0,0 l/m 2 min 0 min 457 W/m 9,7 km/h (2 Bft) 95,74 %
30.08.2022 15:00 25,6 C 27,2 C 21,1 C 56 % 1019,8 hPa 0,0 l/m 2 min 0 min 450 W/m 16,1 km/h (3 Bft) 98,25 %
30.08.2022 15:02 25,6 C 26,7 C 21,1 C 55 % 1019,8 hPa 0,0 l/m 2 min 0 min 453 W/m 6,4 km/h (2 Bft) 100,00 %
30.08.2022 15:04 25,6 C 26,7 C 21,1 C 56 % 1019,8 hPa 0,0 l/m 2 min 0 min 408 W/m 12,9 km/h (3 Bft) 100,00 %
30.08.2022 15:06 25,6 C 27,2 C 21,1 C 57 % 1019,8 hPa 0,0 l/m 2 min 0 min 419 W/m 9,7 km/h (2 Bft) 97,83 %
30.08.2022 15:08 25,6 C 26,7 C 21,1 C 57 % 1019,8 hPa 0,0 l/m 2 min 0 min 396 W/m 12,9 km/h (3 Bft) 97,87 %
30.08.2022 15:10 25,6 C 27,2 C 21,1 C 57 % 1019,8 hPa 0,0 l/m 2 min 0 min 474 W/m 9,7 km/h (2 Bft) 100,00 %
30.08.2022 15:12 25,7 C 27,2 C 21,1 C 56 % 1019,7 hPa 0,0 l/m 2 min 0 min 500 W/m 19,3 km/h (3 Bft) 100,00 %
30.08.2022 15:14 25,6 C 26,7 C 21,1 C 55 % 1019,7 hPa 0,0 l/m 2 min 0 min 392 W/m 16,1 km/h (3 Bft) 100,00 %
30.08.2022 15:16 25,7 C 26,7 C 21,1 C 56 % 1019,7 hPa 0,0 l/m 2 min 0 min 370 W/m 6,4 km/h (2 Bft) 95,74 %
30.08.2022 15:18 25,7 C 26,7 C 21,1 C 56 % 1019,7 hPa 0,0 l/m 2 min 0 min 358 W/m 12,9 km/h (3 Bft) 97,14 %
30.08.2022 15:20 25,7 C 26,7 C 21,1 C 57 % 1019,7 hPa 0,0 l/m 2 min 0 min 335 W/m 9,7 km/h (2 Bft) 97,87 %
30.08.2022 15:22 25,7 C 27,2 C 21,1 C 56 % 1019,6 hPa 0,0 l/m 2 min 0 min 508 W/m 12,9 km/h (3 Bft) 97,83 %
30.08.2022 15:24 25,8 C 27,2 C 21,1 C 56 % 1019,7 hPa 0,0 l/m 2 min 0 min 612 W/m 16,1 km/h (3 Bft) 100,00 %
30.08.2022 15:26 25,8 C 26,7 C 21,1 C 56 % 1019,6 hPa 0,0 l/m 2 min 0 min 471 W/m 16,1 km/h (3 Bft) 100,00 %
30.08.2022 15:28 25,8 C 27,2 C 21,1 C 56 % 1019,6 hPa 0,0 l/m 2 min 0 min 329 W/m 19,3 km/h (3 Bft) 97,87 %
30.08.2022 15:30 25,8 C 27,8 C 21,1 C 56 % 1019,6 hPa 0,0 l/m 2 min 0 min 561 W/m 9,7 km/h (2 Bft) 100,00 %
30.08.2022 15:32 25,8 C 27,8 C 21,1 C 56 % 1019,6 hPa 0,0 l/m 2 min 0 min 571 W/m 19,3 km/h (3 Bft) 100,00 %
30.08.2022 15:34 25,9 C 27,8 C 21,1 C 56 % 1019,6 hPa 0,0 l/m 2 min 0 min 653 W/m 19,3 km/h (3 Bft) 100,00 %
30.08.2022 15:36 26,0 C 28,3 C 21,7 C 56 % 1019,6 hPa 0,0 l/m 2 min 0 min 666 W/m 12,9 km/h (3 Bft) 100,00 %
30.08.2022 15:38 26,1 C 28,9 C 21,7 C 55 % 1019,6 hPa 0,0 l/m 2 min 0 min 709 W/m 12,9 km/h (3 Bft) 100,00 %
30.08.2022 15:40 26,1 C 29,4 C 21,7 C 56 % 1019,6 hPa 0,0 l/m 2 min 0 min 716 W/m 12,9 km/h (3 Bft) 100,00 %
30.08.2022 15:42 26,2 C 29,4 C 21,7 C 55 % 1019,6 hPa 0,0 l/m 2 min 0 min 671 W/m 19,3 km/h (3 Bft) 93,62 %
30.08.2022 15:44 26,3 C 28,9 C 21,7 C 55 % 1019,5 hPa 0,0 l/m 2 min 0 min 566 W/m 16,1 km/h (3 Bft) 100,00 %
30.08.2022 15:46 26,3 C 28,3 C 21,7 C 55 % 1019,4 hPa 0,0 l/m 2 min 0 min 514 W/m 19,3 km/h (3 Bft) 100,00 %
30.08.2022 15:48 26,3 C 28,3 C 21,7 C 54 % 1019,5 hPa 0,0 l/m 2 min 0 min 624 W/m 16,1 km/h (3 Bft) 97,87 %
30.08.2022 15:50 26,2 C 28,3 C 21,7 C 54 % 1019,4 hPa 0,0 l/m 2 min 0 min 669 W/m 19,3 km/h (3 Bft) 100,00 %
30.08.2022 15:52 26,3 C 28,3 C 21,7 C 54 % 1019,4 hPa 0,0 l/m 2 min 0 min 650 W/m 19,3 km/h (3 Bft) 100,00 %
30.08.2022 15:54 26,3 C 28,3 C 21,7 C 54 % 1019,4 hPa 0,0 l/m 2 min 0 min 682 W/m 16,1 km/h (3 Bft) 100,00 %
30.08.2022 15:56 26,3 C 28,9 C 21,7 C 54 % 1019,4 hPa 0,0 l/m 2 min 0 min 667 W/m 16,1 km/h (3 Bft) 100,00 %
30.08.2022 15:58 26,3 C 28,9 C 21,7 C 55 % 1019,4 hPa 0,0 l/m 2 min 0 min 631 W/m 9,7 km/h (2 Bft) 100,00 %
30.08.2022 16:00 26,4 C 28,9 C 21,7 C 54 % 1019,3 hPa 0,0 l/m 2 min 0 min 630 W/m 9,7 km/h (2 Bft) 100,00 %
30.08.2022 16:02 26,4 C 28,3 C 21,7 C 53 % 1019,3 hPa 0,0 l/m 2 min 0 min 603 W/m 16,1 km/h (3 Bft) 100,00 %
30.08.2022 16:04 26,5 C 27,8 C 21,7 C 53 % 1019,3 hPa 0,0 l/m 2 min 0 min 599 W/m 9,7 km/h (2 Bft) 100,00 %
30.08.2022 16:06 26,6 C 28,3 C 21,7 C 54 % 1019,3 hPa 0,0 l/m 2 min 0 min 583 W/m 19,3 km/h (3 Bft) 100,00 %
30.08.2022 16:08 26,6 C 28,3 C 21,7 C 54 % 1019,3 hPa 0,0 l/m 2 min 0 min 602 W/m 19,3 km/h (3 Bft) 100,00 %
30.08.2022 16:10 26,7 C 28,3 C 21,7 C 53 % 1019,3 hPa 0,0 l/m 2 min 0 min 600 W/m 16,1 km/h (3 Bft) 100,00 %
30.08.2022 16:12 26,7 C 29,4 C 21,7 C 54 % 1019,3 hPa 0,0 l/m 2 min 0 min 589 W/m 9,7 km/h (2 Bft) 100,00 %
30.08.2022 16:14 26,8 C 28,3 C 22,2 C 53 % 1019,3 hPa 0,0 l/m 2 min 0 min 566 W/m 12,9 km/h (3 Bft) 97,87 %
30.08.2022 16:16 26,8 C 28,3 C 21,7 C 53 % 1019,2 hPa 0,0 l/m 2 min 0 min 560 W/m 9,7 km/h (2 Bft) 97,83 %
30.08.2022 16:18 26,8 C 28,3 C 22,2 C 53 % 1019,2 hPa 0,0 l/m 2 min 0 min 545 W/m 16,1 km/h (3 Bft) 95,74 %
30.08.2022 16:20 26,8 C 27,8 C 21,7 C 52 % 1019,2 hPa 0,0 l/m 2 min 0 min 546 W/m 12,9 km/h (3 Bft) 97,87 %
30.08.2022 16:22 26,8 C 27,8 C 21,7 C 51 % 1019,3 hPa 0,0 l/m 2 min 0 min 554 W/m 12,9 km/h (3 Bft) 97,87 %
30.08.2022 16:24 26,8 C 28,3 C 21,7 C 52 % 1019,2 hPa 0,0 l/m 2 min 0 min 559 W/m 12,9 km/h (3 Bft) 97,87 %
30.08.2022 16:26 26,8 C 28,3 C 21,7 C 52 % 1019,2 hPa 0,0 l/m 2 min 0 min 559 W/m 9,7 km/h (2 Bft) 95,74 %
30.08.2022 16:28 26,8 C 29,4 C 21,7 C 53 % 1019,2 hPa 0,0 l/m 2 min 0 min 550 W/m 9,7 km/h (2 Bft) 95,65 %
30.08.2022 16:30 26,9 C 29,4 C 21,7 C 52 % 1019,2 hPa 0,0 l/m 2 min 0 min 555 W/m 16,1 km/h (3 Bft) 95,74 %
30.08.2022 16:32 26,9 C 29,4 C 22,2 C 52 % 1019,2 hPa 0,0 l/m 2 min 0 min 566 W/m 9,7 km/h (2 Bft) 95,74 %
30.08.2022 16:34 27,0 C 30,0 C 22,2 C 52 % 1019,2 hPa 0,0 l/m 2 min 0 min 564 W/m 12,9 km/h (3 Bft) 97,87 %
30.08.2022 16:36 27,1 C 30,0 C 22,2 C 52 % 1019,2 hPa 0,0 l/m 2 min 0 min 548 W/m 12,9 km/h (3 Bft) 95,74 %
30.08.2022 16:38 27,1 C 30,0 C 22,2 C 52 % 1019,2 hPa 0,0 l/m 2 min 0 min 529 W/m 22,5 km/h (4 Bft) 95,74 %
30.08.2022 16:40 27,1 C 29,4 C 22,2 C 52 % 1019,3 hPa 0,0 l/m 2 min 0 min 415 W/m 16,1 km/h (3 Bft) 95,65 %
30.08.2022 16:42 27,1 C 28,9 C 22,2 C 52 % 1019,2 hPa 0,0 l/m 2 min 0 min 334 W/m 12,9 km/h (3 Bft) 95,74 %
30.08.2022 16:44 27,0 C 28,3 C 21,7 C 51 % 1019,2 hPa 0,0 l/m 2 min 0 min 344 W/m 16,1 km/h (3 Bft) 95,74 %
30.08.2022 16:46 26,9 C 27,8 C 21,7 C 51 % 1019,2 hPa 0,0 l/m 2 min 0 min 405 W/m 16,1 km/h (3 Bft) 91,49 %
30.08.2022 16:48 26,8 C 28,3 C 22,2 C 52 % 1019,2 hPa 0,0 l/m 2 min 0 min 528 W/m 16,1 km/h (3 Bft) 95,74 %
30.08.2022 16:50 26,8 C 28,3 C 22,2 C 52 % 1019,1 hPa 0,0 l/m 2 min 0 min 535 W/m 19,3 km/h (3 Bft) 93,62 %
30.08.2022 16:52 26,8 C 28,3 C 22,2 C 53 % 1019,0 hPa 0,0 l/m 2 min 0 min 509 W/m 22,5 km/h (4 Bft) 95,65 %
30.08.2022 16:54 26,7 C 27,2 C 21,7 C 52 % 1019,0 hPa 0,0 l/m 2 min 0 min 485 W/m 22,5 km/h (4 Bft) 95,74 %
30.08.2022 16:55 26,7 C 27,2 C 21,7 C 53 % 1019,0 hPa 0,0 l/m 1 min 0 min 284 W/m 22,5 km/h (4 Bft) 98,25 %
30.08.2022 17:00 26,4 C 26,7 C 21,7 C 54 % 1019,0 hPa 0,0 l/m 0 min 0 min 203 W/m 9,7 km/h (2 Bft) 100,00 %
30.08.2022 17:02 26,3 C 27,2 C 21,7 C 53 % 1018,9 hPa 0,0 l/m 0 min 0 min 209 W/m 12,9 km/h (3 Bft) 97,83 %
30.08.2022 17:04 26,3 C 27,8 C 21,7 C 54 % 1018,9 hPa 0,0 l/m 2 min 0 min 484 W/m 16,1 km/h (3 Bft) 100,00 %
30.08.2022 17:06 26,3 C 27,2 C 21,7 C 53 % 1018,8 hPa 0,0 l/m 2 min 0 min 547 W/m 19,3 km/h (3 Bft) 97,87 %
30.08.2022 17:08 26,2 C 27,8 C 21,7 C 53 % 1018,9 hPa 0,0 l/m 2 min 0 min 547 W/m 12,9 km/h (3 Bft) 100,00 %
30.08.2022 17:10 26,2 C 28,3 C 21,7 C 53 % 1018,8 hPa 0,0 l/m 2 min 0 min 414 W/m 12,9 km/h (3 Bft) 97,87 %
30.08.2022 17:12 26,3 C 27,2 C 21,7 C 53 % 1018,9 hPa 0,0 l/m 2 min 0 min 363 W/m 12,9 km/h (3 Bft) 100,00 %
30.08.2022 17:14 26,2 C 27,8 C 21,7 C 53 % 1018,8 hPa 0,0 l/m 0 min 0 min 192 W/m 12,9 km/h (3 Bft) 100,00 %
30.08.2022 17:16 26,2 C 27,2 C 21,7 C 53 % 1018,8 hPa 0,0 l/m 2 min 0 min 337 W/m 19,3 km/h (3 Bft) 100,00 %
30.08.2022 17:18 26,2 C 27,8 C 21,7 C 54 % 1018,8 hPa 0,0 l/m 2 min 0 min 268 W/m 6,4 km/h (2 Bft) 100,00 %
30.08.2022 17:20 26,3 C 28,9 C 21,7 C 54 % 1018,7 hPa 0,0 l/m 2 min 0 min 428 W/m 9,7 km/h (2 Bft) 100,00 %
30.08.2022 17:22 26,3 C 28,9 C 22,2 C 53 % 1018,8 hPa 0,0 l/m 2 min 0 min 482 W/m 12,9 km/h (3 Bft) 100,00 %
30.08.2022 17:24 26,5 C 29,4 C 22,2 C 54 % 1018,8 hPa 0,0 l/m 2 min 0 min 455 W/m 9,7 km/h (2 Bft) 100,00 %
30.08.2022 17:26 26,6 C 29,4 C 22,2 C 53 % 1018,8 hPa 0,0 l/m 2 min 0 min 384 W/m 12,9 km/h (3 Bft) 100,00 %
30.08.2022 17:28 26,7 C 28,9 C 22,2 C 53 % 1018,8 hPa 0,0 l/m 2 min 0 min 331 W/m 22,5 km/h (4 Bft) 97,87 %
30.08.2022 17:30 26,7 C 28,9 C 22,2 C 53 % 1018,8 hPa 0,0 l/m 2 min 0 min 343 W/m 12,9 km/h (3 Bft) 100,00 %
30.08.2022 17:32 26,7 C 28,3 C 22,2 C 53 % 1018,8 hPa 0,0 l/m 2 min 0 min 325 W/m 9,7 km/h (2 Bft) 100,00 %
30.08.2022 17:34 26,7 C 28,3 C 22,2 C 53 % 1018,7 hPa 0,0 l/m 2 min 0 min 235 W/m 12,9 km/h (3 Bft) 100,00 %
30.08.2022 17:36 26,6 C 28,9 C 22,2 C 53 % 1018,8 hPa 0,0 l/m 2 min 0 min 256 W/m 9,7 km/h (2 Bft) 98,28 %
30.08.2022 17:44 26,6 C 27,8 C 22,2 C 52 % 1018,6 hPa 0,0 l/m 5 min 0 min 303 W/m 22,5 km/h (4 Bft) 100,00 %
30.08.2022 17:46 26,5 C 26,7 C 22,2 C 52 % 1018,6 hPa 0,0 l/m 0 min 0 min 181 W/m 19,3 km/h (3 Bft) 97,87 %
30.08.2022 17:48 26,3 C 27,2 C 21,1 C 53 % 1018,5 hPa 0,0 l/m 2 min 0 min 248 W/m 9,7 km/h (2 Bft) 97,87 %
30.08.2022 17:50 26,2 C 27,2 C 21,1 C 53 % 1018,5 hPa 0,0 l/m 2 min 0 min 286 W/m 25,7 km/h (4 Bft) 97,87 %
30.08.2022 17:52 26,1 C 27,8 C 21,1 C 54 % 1018,5 hPa 0,0 l/m 2 min 0 min 366 W/m 9,7 km/h (2 Bft) 95,65 %
30.08.2022 17:54 26,1 C 28,3 C 21,1 C 54 % 1018,5 hPa 0,0 l/m 2 min 0 min 384 W/m 16,1 km/h (3 Bft) 97,87 %
30.08.2022 17:56 26,1 C 28,3 C 21,7 C 54 % 1018,5 hPa 0,0 l/m 2 min 0 min 379 W/m 19,3 km/h (3 Bft) 95,74 %
30.08.2022 17:58 26,1 C 28,3 C 21,7 C 54 % 1018,5 hPa 0,0 l/m 2 min 0 min 378 W/m 45,1 km/h (6 Bft) 97,87 %
30.08.2022 18:00 26,1 C 28,3 C 21,7 C 53 % 1018,4 hPa 0,0 l/m 2 min 0 min 370 W/m 19,3 km/h (3 Bft) 97,87 %
30.08.2022 18:02 26,1 C 28,9 C 21,7 C 54 % 1018,4 hPa 0,0 l/m 2 min 0 min 352 W/m 16,1 km/h (3 Bft) 97,87 %
30.08.2022 18:04 26,1 C 29,4 C 21,7 C 54 % 1018,4 hPa 0,0 l/m 2 min 0 min 338 W/m 12,9 km/h (3 Bft) 97,83 %
30.08.2022 18:08 26,2 C 28,9 C 21,7 C 53 % 1018,4 hPa 0,0 l/m 4 min 0 min 323 W/m 16,1 km/h (3 Bft) 96,91 %
30.08.2022 18:12 26,1 C 28,3 C 21,7 C 53 % 1018,4 hPa 0,0 l/m 4 min 0 min 268 W/m 22,5 km/h (4 Bft) 95,12 %
30.08.2022 18:14 26,1 C 28,9 C 21,7 C 54 % 1018,4 hPa 0,0 l/m 2 min 0 min 259 W/m 19,3 km/h (3 Bft) 97,87 %
30.08.2022 18:16 26,2 C 28,9 C 21,7 C 54 % 1018,4 hPa 0,0 l/m 2 min 0 min 270 W/m 22,5 km/h (4 Bft) 97,87 %
30.08.2022 18:18 26,1 C 28,3 C 21,7 C 54 % 1018,4 hPa 0,0 l/m 2 min 0 min 270 W/m 19,3 km/h (3 Bft) 95,74 %
30.08.2022 18:20 26,1 C 28,3 C 21,7 C 54 % 1018,4 hPa 0,0 l/m 2 min 0 min 244 W/m 9,7 km/h (2 Bft) 97,83 %
30.08.2022 18:22 26,1 C 28,3 C 21,7 C 54 % 1018,4 hPa 0,0 l/m 2 min 0 min 190 W/m 12,9 km/h (3 Bft) 97,87 %
30.08.2022 18:24 26,1 C 27,2 C 21,1 C 55 % 1018,4 hPa 0,0 l/m 0 min 0 min 126 W/m 6,4 km/h (2 Bft) 97,87 %
30.08.2022 18:26 26,1 C 27,2 C 21,1 C 54 % 1018,4 hPa 0,0 l/m 2 min 0 min 153 W/m 16,1 km/h (3 Bft) 97,87 %
30.08.2022 18:28 25,9 C 27,8 C 21,1 C 55 % 1018,5 hPa 0,0 l/m 2 min 0 min 204 W/m 6,4 km/h (2 Bft) 95,74 %
30.08.2022 18:30 25,9 C 27,2 C 21,1 C 54 % 1018,4 hPa 0,0 l/m 2 min 0 min 215 W/m 19,3 km/h (3 Bft) 97,87 %
30.08.2022 18:32 25,8 C 27,8 C 21,1 C 54 % 1018,4 hPa 0,0 l/m 2 min 0 min 223 W/m 16,1 km/h (3 Bft) 95,65 %
30.08.2022 18:34 25,8 C 27,2 C 21,1 C 54 % 1018,4 hPa 0,0 l/m 2 min 0 min 163 W/m 16,1 km/h (3 Bft) 95,74 %
30.08.2022 18:36 25,7 C 26,7 C 21,1 C 54 % 1018,4 hPa 0,0 l/m 0 min 0 min 134 W/m 12,9 km/h (3 Bft) 93,62 %
30.08.2022 18:38 25,7 C 26,1 C 21,1 C 54 % 1018,4 hPa 0,0 l/m 0 min 0 min 98 W/m 19,3 km/h (3 Bft) 95,74 %
30.08.2022 18:40 25,7 C 25,6 C 20,6 C 53 % 1018,4 hPa 0,0 l/m 0 min 0 min 82 W/m 22,5 km/h (4 Bft) 95,74 %
30.08.2022 18:42 25,6 C 25,0 C 20,6 C 54 % 1018,5 hPa 0,0 l/m 0 min 0 min 84 W/m 12,9 km/h (3 Bft) 93,62 %
30.08.2022 18:44 25,4 C 25,0 C 20,6 C 54 % 1018,5 hPa 0,0 l/m 0 min 0 min 84 W/m 12,9 km/h (3 Bft) 93,48 %
30.08.2022 18:46 25,3 C 25,0 C 20,6 C 54 % 1018,5 hPa 0,0 l/m 0 min 0 min 80 W/m 12,9 km/h (3 Bft) 95,74 %
30.08.2022 18:48 25,2 C 25,0 C 20,6 C 54 % 1018,4 hPa 0,0 l/m 0 min 0 min 78 W/m 6,4 km/h (2 Bft) 91,49 %
30.08.2022 18:50 25,2 C 24,4 C 20,6 C 54 % 1018,4 hPa 0,0 l/m 0 min 0 min 77 W/m 6,4 km/h (2 Bft) 95,74 %
30.08.2022 18:52 25,2 C 24,4 C 20,6 C 54 % 1018,4 hPa 0,0 l/m 0 min 0 min 78 W/m 9,7 km/h (2 Bft) 93,62 %
30.08.2022 18:54 25,1 C 24,4 C 20,6 C 54 % 1018,4 hPa 0,0 l/m 0 min 0 min 82 W/m 12,9 km/h (3 Bft) 93,62 %
30.08.2022 18:56 25,1 C 24,4 C 20,0 C 54 % 1018,4 hPa 0,0 l/m 0 min 0 min 83 W/m 6,4 km/h (2 Bft) 95,65 %
30.08.2022 18:58 25,0 C 24,4 C 20,0 C 55 % 1018,4 hPa 0,0 l/m 0 min 0 min 85 W/m 12,9 km/h (3 Bft) 95,74 %
30.08.2022 19:00 24,9 C 24,4 C 20,0 C 55 % 1018,4 hPa 0,0 l/m 0 min 0 min 86 W/m 6,4 km/h (2 Bft) 95,74 %
30.08.2022 19:02 24,9 C 24,4 C 20,0 C 55 % 1018,5 hPa 0,0 l/m 0 min 0 min 85 W/m 12,9 km/h (3 Bft) 95,74 %
30.08.2022 19:04 24,8 C 24,4 C 20,0 C 55 % 1018,5 hPa 0,0 l/m 0 min 0 min 82 W/m 16,1 km/h (3 Bft) 93,62 %
30.08.2022 19:06 24,8 C 24,4 C 20,0 C 55 % 1018,5 hPa 0,0 l/m 0 min 0 min 77 W/m 16,1 km/h (3 Bft) 93,62 %
30.08.2022 19:08 24,7 C 23,9 C 20,0 C 54 % 1018,5 hPa 0,0 l/m 0 min 0 min 71 W/m 16,1 km/h (3 Bft) 97,83 %
30.08.2022 19:10 24,7 C 23,9 C 20,0 C 55 % 1018,5 hPa 0,0 l/m 0 min 0 min 67 W/m 6,4 km/h (2 Bft) 97,87 %
30.08.2022 19:12 24,7 C 23,9 C 20,0 C 54 % 1018,6 hPa 0,0 l/m 0 min 0 min 66 W/m 9,7 km/h (2 Bft) 95,74 %
30.08.2022 19:14 24,6 C 23,9 C 20,0 C 54 % 1018,6 hPa 0,0 l/m 0 min 0 min 68 W/m 12,9 km/h (3 Bft) 97,87 %
30.08.2022 19:16 24,6 C 23,9 C 20,0 C 54 % 1018,5 hPa 0,0 l/m 0 min 0 min 69 W/m 16,1 km/h (3 Bft) 97,87 %
30.08.2022 19:18 24,5 C 23,9 C 20,0 C 54 % 1018,5 hPa 0,0 l/m 0 min 0 min 69 W/m 16,1 km/h (3 Bft) 97,87 %
30.08.2022 19:20 24,5 C 23,9 C 20,0 C 55 % 1018,5 hPa 0,0 l/m 0 min 0 min 67 W/m 9,7 km/h (2 Bft) 95,65 %
30.08.2022 19:22 24,4 C 23,9 C 20,0 C 55 % 1018,5 hPa 0,0 l/m 0 min 0 min 64 W/m 16,1 km/h (3 Bft) 95,74 %
30.08.2022 19:24 24,4 C 23,9 C 19,4 C 55 % 1018,6 hPa 0,0 l/m 0 min 0 min 60 W/m 9,7 km/h (2 Bft) 93,62 %
30.08.2022 19:26 24,4 C 23,3 C 19,4 C 55 % 1018,5 hPa 0,0 l/m 0 min 0 min 60 W/m 25,7 km/h (4 Bft) 97,87 %
30.08.2022 19:28 24,3 C 23,3 C 19,4 C 55 % 1018,5 hPa 0,0 l/m 0 min 0 min 61 W/m 9,7 km/h (2 Bft) 95,74 %
30.08.2022 19:30 24,3 C 23,3 C 19,4 C 55 % 1018,5 hPa 0,0 l/m 0 min 0 min 60 W/m 12,9 km/h (3 Bft) 100,00 %
30.08.2022 19:32 24,2 C 23,3 C 19,4 C 55 % 1018,6 hPa 0,0 l/m 0 min 0 min 56 W/m 9,7 km/h (2 Bft) 100,00 %
30.08.2022 19:34 24,2 C 23,3 C 19,4 C 55 % 1018,6 hPa 0,0 l/m 0 min 0 min 49 W/m 16,1 km/h (3 Bft) 100,00 %
30.08.2022 19:36 24,1 C 23,3 C 19,4 C 55 % 1018,6 hPa 0,0 l/m 0 min 0 min 44 W/m 12,9 km/h (3 Bft) 100,00 %
30.08.2022 19:38 24,1 C 23,3 C 19,4 C 56 % 1018,7 hPa 0,0 l/m 0 min 0 min 42 W/m 9,7 km/h (2 Bft) 100,00 %
30.08.2022 19:40 24,1 C 23,3 C 19,4 C 56 % 1018,7 hPa 0,0 l/m 0 min 0 min 40 W/m 12,9 km/h (3 Bft) 100,00 %
30.08.2022 19:42 24,0 C 23,3 C 19,4 C 56 % 1018,7 hPa 0,0 l/m 0 min 0 min 40 W/m 3,2 km/h (1 Bft) 97,87 %
30.08.2022 19:44 23,9 C 23,3 C 18,9 C 56 % 1018,7 hPa 0,0 l/m 0 min 0 min 39 W/m 12,9 km/h (3 Bft) 100,00 %
30.08.2022 19:46 23,9 C 23,3 C 18,9 C 56 % 1018,8 hPa 0,0 l/m 0 min 0 min 37 W/m 16,1 km/h (3 Bft) 100,00 %
30.08.2022 19:48 23,9 C 23,3 C 18,9 C 56 % 1018,8 hPa 0,0 l/m 0 min 0 min 35 W/m 6,4 km/h (2 Bft) 100,00 %
30.08.2022 19:50 23,8 C 23,3 C 18,9 C 56 % 1018,8 hPa 0,0 l/m 0 min 0 min 34 W/m 12,9 km/h (3 Bft) 100,00 %
30.08.2022 19:52 23,8 C 22,8 C 18,9 C 56 % 1018,8 hPa 0,0 l/m 0 min 0 min 30 W/m 9,7 km/h (2 Bft) 100,00 %
30.08.2022 19:54 23,8 C 22,8 C 18,9 C 56 % 1018,8 hPa 0,0 l/m 0 min 0 min 27 W/m 12,9 km/h (3 Bft) 100,00 %
30.08.2022 19:56 23,7 C 22,8 C 18,9 C 56 % 1018,9 hPa 0,0 l/m 0 min 0 min 24 W/m 16,1 km/h (3 Bft) 100,00 %
30.08.2022 19:58 23,7 C 22,8 C 18,9 C 56 % 1018,9 hPa 0,0 l/m 0 min 0 min 21 W/m 12,9 km/h (3 Bft) 100,00 %
30.08.2022 20:00 23,7 C 22,8 C 18,9 C 56 % 1018,9 hPa 0,0 l/m 0 min 0 min 19 W/m 16,1 km/h (3 Bft) 100,00 %
30.08.2022 20:02 23,6 C 22,8 C 18,9 C 56 % 1018,9 hPa 0,0 l/m 0 min 0 min 15 W/m 9,7 km/h (2 Bft) 97,87 %
30.08.2022 20:04 23,6 C 22,8 C 18,9 C 57 % 1018,9 hPa 0,0 l/m 0 min 0 min 12 W/m 12,9 km/h (3 Bft) 100,00 %
30.08.2022 20:06 23,6 C 22,8 C 18,9 C 57 % 1019,1 hPa 0,0 l/m 0 min 0 min 11 W/m 12,9 km/h (3 Bft) 100,00 %
30.08.2022 20:08 23,5 C 22,8 C 18,9 C 57 % 1019,1 hPa 0,0 l/m 0 min 0 min 9 W/m 12,9 km/h (3 Bft) 95,65 %
30.08.2022 20:10 23,5 C 22,8 C 18,9 C 57 % 1019,1 hPa 0,0 l/m 0 min 0 min 8 W/m 16,1 km/h (3 Bft) 100,00 %
30.08.2022 20:12 23,4 C 22,2 C 18,9 C 57 % 1019,1 hPa 0,0 l/m 0 min 0 min 7 W/m 6,4 km/h (2 Bft) 97,87 %
30.08.2022 20:14 23,4 C 22,2 C 18,9 C 57 % 1019,1 hPa 0,0 l/m 0 min 0 min 6 W/m 16,1 km/h (3 Bft) 100,00 %
30.08.2022 20:16 23,4 C 22,2 C 18,3 C 57 % 1019,1 hPa 0,0 l/m 0 min 0 min 5 W/m 12,9 km/h (3 Bft) 100,00 %
30.08.2022 20:18 23,3 C 22,2 C 18,3 C 57 % 1019,1 hPa 0,0 l/m 0 min 0 min 1 W/m 16,1 km/h (3 Bft) 100,00 %
30.08.2022 20:20 23,3 C 22,2 C 18,3 C 57 % 1019,2 hPa 0,0 l/m 0 min 0 min 0 W/m 9,7 km/h (2 Bft) 100,00 %
30.08.2022 20:22 23,3 C 22,2 C 18,3 C 57 % 1019,2 hPa 0,0 l/m 0 min 0 min 0 W/m 9,7 km/h (2 Bft) 97,87 %
30.08.2022 20:24 23,2 C 22,2 C 18,3 C 57 % 1019,2 hPa 0,0 l/m 0 min 0 min 0 W/m 12,9 km/h (3 Bft) 100,00 %
30.08.2022 20:26 23,2 C 22,2 C 18,3 C 58 % 1019,2 hPa 0,0 l/m 0 min 0 min 0 W/m 12,9 km/h (3 Bft) 100,00 %
30.08.2022 20:28 23,2 C 22,2 C 18,3 C 58 % 1019,2 hPa 0,0 l/m 0 min 0 min 0 W/m 6,4 km/h (2 Bft) 100,00 %
30.08.2022 20:30 23,1 C 22,2 C 18,3 C 58 % 1019,3 hPa 0,0 l/m 0 min 0 min 0 W/m 9,7 km/h (2 Bft) 97,87 %
30.08.2022 20:32 23,1 C 22,2 C 18,3 C 58 % 1019,3 hPa 0,0 l/m 0 min 0 min 0 W/m 3,2 km/h (1 Bft) 97,83 %
30.08.2022 20:34 23,1 C 22,2 C 18,3 C 58 % 1019,3 hPa 0,0 l/m 0 min 0 min 0 W/m 9,7 km/h (2 Bft) 97,87 %
30.08.2022 20:36 23,1 C 22,2 C 18,3 C 58 % 1019,3 hPa 0,0 l/m 0 min 0 min 0 W/m 12,9 km/h (3 Bft) 97,87 %
30.08.2022 20:38 23,0 C 22,2 C 18,3 C 58 % 1019,2 hPa 0,0 l/m 0 min 0 min 0 W/m 9,7 km/h (2 Bft) 97,87 %
30.08.2022 20:40 23,0 C 22,2 C 18,3 C 58 % 1019,3 hPa 0,0 l/m 0 min 0 min 0 W/m 6,4 km/h (2 Bft) 97,87 %
30.08.2022 20:42 22,9 C 21,7 C 18,3 C 58 % 1019,3 hPa 0,0 l/m 0 min 0 min 0 W/m 12,9 km/h (3 Bft) 95,65 %
30.08.2022 20:44 22,9 C 21,7 C 18,3 C 58 % 1019,3 hPa 0,0 l/m 0 min 0 min 0 W/m 12,9 km/h (3 Bft) 97,87 %
30.08.2022 20:46 22,9 C 21,7 C 18,3 C 58 % 1019,3 hPa 0,0 l/m 0 min 0 min 0 W/m 12,9 km/h (3 Bft) 97,87 %
30.08.2022 20:48 22,8 C 21,7 C 18,3 C 58 % 1019,3 hPa 0,0 l/m 0 min 0 min 0 W/m 12,9 km/h (3 Bft) 97,87 %
30.08.2022 20:50 22,8 C 21,7 C 17,8 C 58 % 1019,3 hPa 0,0 l/m 0 min 0 min 0 W/m 6,4 km/h (2 Bft) 97,87 %
30.08.2022 20:52 22,8 C 21,7 C 17,8 C 58 % 1019,3 hPa 0,0 l/m 0 min 0 min 0 W/m 6,4 km/h (2 Bft) 95,74 %
30.08.2022 20:54 22,7 C 21,7 C 17,8 C 58 % 1019,3 hPa 0,0 l/m 0 min 0 min 0 W/m 12,9 km/h (3 Bft) 97,83 %
30.08.2022 20:56 22,7 C 21,7 C 17,8 C 58 % 1019,4 hPa 0,0 l/m 0 min 0 min 0 W/m 3,2 km/h (1 Bft) 97,87 %
30.08.2022 20:58 22,7 C 21,7 C 17,8 C 58 % 1019,4 hPa 0,0 l/m 0 min 0 min 0 W/m 9,7 km/h (2 Bft) 97,87 %
30.08.2022 21:00 22,6 C 21,7 C 17,8 C 58 % 1019,4 hPa 0,0 l/m 0 min 0 min 0 W/m 12,9 km/h (3 Bft) 97,87 %
30.08.2022 21:02 22,6 C 21,7 C 17,8 C 58 % 1019,4 hPa 0,0 l/m 0 min 0 min 0 W/m 6,4 km/h (2 Bft) 91,49 %
30.08.2022 21:05 22,6 C 21,7 C 17,8 C 58 % 1019,5 hPa 0,0 l/m 0 min 0 min 0 W/m 6,4 km/h (2 Bft) 97,18 %
30.08.2022 21:06 22,6 C 21,7 C 17,8 C 58 % 1019,5 hPa 0,0 l/m 0 min 0 min 0 W/m 6,4 km/h (2 Bft) 95,65 %
30.08.2022 21:08 22,6 C 21,7 C 17,8 C 58 % 1019,5 hPa 0,0 l/m 0 min 0 min 0 W/m 12,9 km/h (3 Bft) 96,36 %
30.08.2022 21:10 22,5 C 21,7 C 17,8 C 58 % 1019,5 hPa 0,0 l/m 0 min 0 min 0 W/m 6,4 km/h (2 Bft) 97,83 %
30.08.2022 21:12 22,5 C 21,7 C 17,8 C 58 % 1019,5 hPa 0,0 l/m 0 min 0 min 0 W/m 6,4 km/h (2 Bft) 97,87 %
30.08.2022 21:14 22,5 C 21,7 C 17,8 C 58 % 1019,5 hPa 0,0 l/m 0 min 0 min 0 W/m 6,4 km/h (2 Bft) 97,87 %
30.08.2022 21:16 22,4 C 21,7 C 17,8 C 58 % 1019,5 hPa 0,0 l/m 0 min 0 min 0 W/m 3,2 km/h (1 Bft) 97,87 %
30.08.2022 21:18 22,4 C 21,7 C 17,8 C 58 % 1019,5 hPa 0,0 l/m 0 min 0 min 0 W/m 9,7 km/h (2 Bft) 93,62 %
30.08.2022 21:20 22,4 C 21,7 C 17,8 C 58 % 1019,5 hPa 0,0 l/m 0 min 0 min 0 W/m 12,9 km/h (3 Bft) 97,92 %
30.08.2022 21:22 22,4 C 21,1 C 17,8 C 58 % 1019,5 hPa 0,0 l/m 0 min 0 min 0 W/m 6,4 km/h (2 Bft) 95,65 %
30.08.2022 21:24 22,4 C 21,1 C 17,8 C 58 % 1019,5 hPa 0,0 l/m 0 min 0 min 0 W/m 3,2 km/h (1 Bft) 95,74 %
30.08.2022 21:26 22,3 C 21,1 C 17,8 C 58 % 1019,5 hPa 0,0 l/m 0 min 0 min 0 W/m 9,7 km/h (2 Bft) 97,87 %
30.08.2022 21:28 22,3 C 21,1 C 17,8 C 58 % 1019,5 hPa 0,0 l/m 0 min 0 min 0 W/m 12,9 km/h (3 Bft) 95,74 %
30.08.2022 21:30 22,3 C 21,1 C 17,8 C 58 % 1019,5 hPa 0,0 l/m 0 min 0 min 0 W/m 12,9 km/h (3 Bft) 95,74 %
30.08.2022 21:32 22,3 C 21,1 C 17,8 C 58 % 1019,5 hPa 0,0 l/m 0 min 0 min 0 W/m 6,4 km/h (2 Bft) 95,74 %
30.08.2022 21:34 22,3 C 21,1 C 17,8 C 58 % 1019,5 hPa 0,0 l/m 0 min 0 min 0 W/m 12,9 km/h (3 Bft) 95,65 %
30.08.2022 21:36 22,3 C 21,1 C 17,8 C 58 % 1019,5 hPa 0,0 l/m 0 min 0 min 0 W/m 9,7 km/h (2 Bft) 95,74 %
30.08.2022 21:38 22,3 C 21,1 C 17,8 C 58 % 1019,5 hPa 0,0 l/m 0 min 0 min 0 W/m 9,7 km/h (2 Bft) 93,62 %
30.08.2022 21:40 22,2 C 21,1 C 17,2 C 59 % 1019,5 hPa 0,0 l/m 0 min 0 min 0 W/m 12,9 km/h (3 Bft) 95,74 %
30.08.2022 21:42 22,2 C 21,1 C 17,2 C 59 % 1019,5 hPa 0,0 l/m 0 min 0 min 0 W/m 6,4 km/h (2 Bft) 95,74 %
30.08.2022 21:44 22,2 C 21,1 C 17,2 C 58 % 1019,5 hPa 0,0 l/m 0 min 0 min 0 W/m 6,4 km/h (2 Bft) 95,74 %
30.08.2022 21:46 22,1 C 21,1 C 17,2 C 58 % 1019,5 hPa 0,0 l/m 0 min 0 min 0 W/m 12,9 km/h (3 Bft) 95,65 %
30.08.2022 21:48 22,1 C 21,1 C 17,2 C 59 % 1019,6 hPa 0,0 l/m 0 min 0 min 0 W/m 16,1 km/h (3 Bft) 95,74 %
30.08.2022 21:50 22,1 C 21,1 C 17,2 C 59 % 1019,5 hPa 0,0 l/m 0 min 0 min 0 W/m 6,4 km/h (2 Bft) 95,74 %
30.08.2022 21:52 22,1 C 21,1 C 17,2 C 59 % 1019,6 hPa 0,0 l/m 0 min 0 min 0 W/m 12,9 km/h (3 Bft) 95,74 %
30.08.2022 21:54 22,1 C 21,1 C 17,2 C 59 % 1019,6 hPa 0,0 l/m 0 min 0 min 0 W/m 12,9 km/h (3 Bft) 97,87 %
30.08.2022 21:56 22,1 C 21,1 C 17,2 C 59 % 1019,6 hPa 0,0 l/m 0 min 0 min 0 W/m 25,7 km/h (4 Bft) 95,74 %
30.08.2022 21:58 22,0 C 21,1 C 17,2 C 59 % 1019,6 hPa 0,0 l/m 0 min 0 min 0 W/m 9,7 km/h (2 Bft) 97,83 %
30.08.2022 22:00 22,0 C 21,1 C 17,2 C 60 % 1019,6 hPa 0,0 l/m 0 min 0 min 0 W/m 12,9 km/h (3 Bft) 97,87 %
30.08.2022 22:02 22,0 C 21,1 C 17,2 C 60 % 1019,5 hPa 0,0 l/m 0 min 0 min 0 W/m 12,9 km/h (3 Bft) 97,30 %
30.08.2022 22:04 21,9 C 21,1 C 17,2 C 60 % 1019,6 hPa 0,0 l/m 0 min 0 min 0 W/m 16,1 km/h (3 Bft) 95,74 %
30.08.2022 22:06 21,9 C 21,1 C 17,2 C 60 % 1019,6 hPa 0,0 l/m 0 min 0 min 0 W/m 19,3 km/h (3 Bft) 98,31 %
30.08.2022 22:08 21,9 C 21,1 C 17,2 C 60 % 1019,6 hPa 0,0 l/m 0 min 0 min 0 W/m 16,1 km/h (3 Bft) 97,83 %
30.08.2022 22:10 21,9 C 21,1 C 17,2 C 61 % 1019,6 hPa 0,0 l/m 0 min 0 min 0 W/m 6,4 km/h (2 Bft) 97,22 %
30.08.2022 22:12 21,9 C 21,1 C 17,2 C 60 % 1019,6 hPa 0,0 l/m 0 min 0 min 0 W/m 6,4 km/h (2 Bft) 100,00 %
30.08.2022 22:14 21,9 C 21,1 C 17,2 C 60 % 1019,5 hPa 0,0 l/m 0 min 0 min 0 W/m 22,5 km/h (4 Bft) 97,87 %
30.08.2022 22:16 21,9 C 21,1 C 17,2 C 61 % 1019,6 hPa 0,0 l/m 0 min 0 min 0 W/m 6,4 km/h (2 Bft) 97,87 %
30.08.2022 22:18 21,8 C 20,6 C 17,2 C 60 % 1019,6 hPa 0,0 l/m 0 min 0 min 0 W/m 9,7 km/h (2 Bft) 100,00 %
30.08.2022 22:20 21,8 C 20,6 C 17,2 C 61 % 1019,6 hPa 0,0 l/m 0 min 0 min 0 W/m 12,9 km/h (3 Bft) 100,00 %
30.08.2022 22:22 21,8 C 20,6 C 17,2 C 61 % 1019,6 hPa 0,0 l/m 0 min 0 min 0 W/m 16,1 km/h (3 Bft) 100,00 %
30.08.2022 22:24 21,8 C 20,6 C 17,2 C 61 % 1019,6 hPa 0,0 l/m 0 min 0 min 0 W/m 19,3 km/h (3 Bft) 95,65 %
30.08.2022 22:26 21,8 C 21,1 C 17,2 C 61 % 1019,6 hPa 0,0 l/m 0 min 0 min 0 W/m 9,7 km/h (2 Bft) 100,00 %
30.08.2022 22:28 21,8 C 20,6 C 17,2 C 61 % 1019,6 hPa 0,0 l/m 0 min 0 min 0 W/m 12,9 km/h (3 Bft) 97,87 %
30.08.2022 22:30 21,8 C 20,6 C 17,2 C 61 % 1019,7 hPa 0,0 l/m 0 min 0 min 0 W/m 16,1 km/h (3 Bft) 97,87 %
30.08.2022 22:36 21,7 C 20,6 C 17,2 C 61 % 1019,6 hPa 0,0 l/m 0 min 0 min 0 W/m 6,4 km/h (2 Bft) 97,56 %
30.08.2022 22:38 21,7 C 20,6 C 17,2 C 61 % 1019,6 hPa 0,0 l/m 0 min 0 min 0 W/m 25,7 km/h (4 Bft) 93,62 %
30.08.2022 22:40 21,7 C 20,6 C 17,2 C 61 % 1019,5 hPa 0,0 l/m 0 min 0 min 0 W/m 12,9 km/h (3 Bft) 100,00 %
30.08.2022 22:42 21,6 C 20,6 C 17,2 C 61 % 1019,6 hPa 0,0 l/m 0 min 0 min 0 W/m 9,7 km/h (2 Bft) 100,00 %
30.08.2022 22:44 21,6 C 20,6 C 17,2 C 61 % 1019,6 hPa 0,0 l/m 0 min 0 min 0 W/m 9,7 km/h (2 Bft) 97,87 %
30.08.2022 22:46 21,6 C 20,6 C 17,2 C 61 % 1019,6 hPa 0,0 l/m 0 min 0 min 0 W/m 16,1 km/h (3 Bft) 97,87 %
30.08.2022 22:48 21,6 C 20,6 C 17,2 C 61 % 1019,6 hPa 0,0 l/m 0 min 0 min 0 W/m 9,7 km/h (2 Bft) 95,74 %
30.08.2022 22:50 21,5 C 20,6 C 16,7 C 61 % 1019,6 hPa 0,0 l/m 0 min 0 min 0 W/m 9,7 km/h (2 Bft) 97,87 %
30.08.2022 22:52 21,5 C 20,6 C 16,7 C 61 % 1019,6 hPa 0,0 l/m 0 min 0 min 0 W/m 32,2 km/h (5 Bft) 97,87 %
30.08.2022 22:54 21,4 C 20,6 C 16,7 C 61 % 1019,7 hPa 0,0 l/m 0 min 0 min 0 W/m 16,1 km/h (3 Bft) 98,04 %
30.08.2022 22:56 21,4 C 20,6 C 16,7 C 61 % 1019,7 hPa 0,0 l/m 0 min 0 min 0 W/m 12,9 km/h (3 Bft) 97,87 %
30.08.2022 22:58 21,4 C 20,6 C 16,7 C 61 % 1019,7 hPa 0,0 l/m 0 min 0 min 0 W/m 12,9 km/h (3 Bft) 97,87 %
30.08.2022 23:00 21,4 C 20,6 C 16,7 C 61 % 1019,7 hPa 0,0 l/m 0 min 0 min 0 W/m 19,3 km/h (3 Bft) 100,00 %
30.08.2022 23:02 21,4 C 20,6 C 16,7 C 61 % 1019,7 hPa 0,0 l/m 0 min 0 min 0 W/m 16,1 km/h (3 Bft) 100,00 %
30.08.2022 23:04 21,3 C 20,6 C 16,7 C 61 % 1019,7 hPa 0,0 l/m 0 min 0 min 0 W/m 6,4 km/h (2 Bft) 100,00 %
30.08.2022 23:06 21,3 C 20,6 C 16,7 C 61 % 1019,7 hPa 0,0 l/m 0 min 0 min 0 W/m 12,9 km/h (3 Bft) 97,87 %
30.08.2022 23:08 21,3 C 20,6 C 16,7 C 61 % 1019,7 hPa 0,0 l/m 0 min 0 min 0 W/m 9,7 km/h (2 Bft) 100,00 %
30.08.2022 23:10 21,3 C 20,6 C 16,7 C 61 % 1019,7 hPa 0,0 l/m 0 min 0 min 0 W/m 9,7 km/h (2 Bft) 100,00 %
30.08.2022 23:12 21,3 C 20,0 C 16,7 C 61 % 1019,7 hPa 0,0 l/m 0 min 0 min 0 W/m 9,7 km/h (2 Bft) 100,00 %
30.08.2022 23:14 21,3 C 20,0 C 16,7 C 62 % 1019,7 hPa 0,0 l/m 0 min 0 min 0 W/m 19,3 km/h (3 Bft) 100,00 %
30.08.2022 23:16 21,3 C 20,0 C 16,7 C 61 % 1019,7 hPa 0,0 l/m 0 min 0 min 0 W/m 19,3 km/h (3 Bft) 95,74 %
30.08.2022 23:18 21,2 C 20,0 C 16,7 C 62 % 1019,7 hPa 0,0 l/m 0 min 0 min 0 W/m 9,7 km/h (2 Bft) 100,00 %
30.08.2022 23:20 21,2 C 20,0 C 16,7 C 62 % 1019,7 hPa 0,0 l/m 0 min 0 min 0 W/m 19,3 km/h (3 Bft) 100,00 %
30.08.2022 23:22 21,2 C 20,0 C 16,7 C 61 % 1019,7 hPa 0,0 l/m 0 min 0 min 0 W/m 12,9 km/h (3 Bft) 95,74 %
30.08.2022 23:24 21,2 C 20,0 C 16,7 C 61 % 1019,7 hPa 0,0 l/m 0 min 0 min 0 W/m 9,7 km/h (2 Bft) 100,00 %
30.08.2022 23:26 21,2 C 20,0 C 16,7 C 61 % 1019,8 hPa 0,0 l/m 0 min 0 min 0 W/m 12,9 km/h (3 Bft) 100,00 %
30.08.2022 23:28 21,1 C 20,0 C 16,7 C 62 % 1019,8 hPa 0,0 l/m 0 min 0 min 0 W/m 12,9 km/h (3 Bft) 100,00 %
30.08.2022 23:30 21,1 C 20,0 C 16,7 C 61 % 1019,8 hPa 0,0 l/m 0 min 0 min 0 W/m 12,9 km/h (3 Bft) 97,87 %
30.08.2022 23:32 21,1 C 20,0 C 16,7 C 61 % 1019,8 hPa 0,0 l/m 0 min 0 min 0 W/m 12,9 km/h (3 Bft) 100,00 %
30.08.2022 23:34 21,1 C 20,0 C 16,7 C 62 % 1019,8 hPa 0,0 l/m 0 min 0 min 0 W/m 6,4 km/h (2 Bft) 100,00 %
30.08.2022 23:36 21,1 C 20,0 C 16,7 C 62 % 1019,9 hPa 0,0 l/m 0 min 0 min 0 W/m 19,3 km/h (3 Bft) 100,00 %
30.08.2022 23:38 21,1 C 20,0 C 16,7 C 61 % 1019,9 hPa 0,0 l/m 0 min 0 min 0 W/m 12,9 km/h (3 Bft) 97,83 %
30.08.2022 23:40 21,1 C 20,0 C 16,7 C 61 % 1019,8 hPa 0,0 l/m 0 min 0 min 0 W/m 16,1 km/h (3 Bft) 100,00 %
30.08.2022 23:42 21,1 C 20,0 C 16,7 C 62 % 1019,8 hPa 0,0 l/m 0 min 0 min 0 W/m 12,9 km/h (3 Bft) 97,87 %
30.08.2022 23:44 21,1 C 20,0 C 16,7 C 62 % 1019,8 hPa 0,0 l/m 0 min 0 min 0 W/m 12,9 km/h (3 Bft) 100,00 %
30.08.2022 23:46 21,1 C 20,0 C 16,7 C 61 % 1019,8 hPa 0,0 l/m 0 min 0 min 0 W/m 6,4 km/h (2 Bft) 95,74 %
30.08.2022 23:48 21,1 C 20,0 C 16,7 C 61 % 1019,9 hPa 0,0 l/m 0 min 0 min 0 W/m 6,4 km/h (2 Bft) 100,00 %
30.08.2022 23:50 21,1 C 20,0 C 16,7 C 61 % 1019,9 hPa 0,0 l/m 0 min 0 min 0 W/m 12,9 km/h (3 Bft) 100,00 %
30.08.2022 23:52 21,1 C 20,0 C 16,7 C 61 % 1019,9 hPa 0,0 l/m 0 min 0 min 0 W/m 19,3 km/h (3 Bft) 100,00 %
30.08.2022 23:54 21,1 C 20,0 C 16,7 C 61 % 1019,9 hPa 0,0 l/m 0 min 0 min 0 W/m 6,4 km/h (2 Bft) 100,00 %
30.08.2022 23:56 21,0 C 20,0 C 16,7 C 61 % 1019,9 hPa 0,0 l/m 0 min 0 min 0 W/m 16,1 km/h (3 Bft) 97,87 %
30.08.2022 23:58 21,0 C 20,0 C 16,7 C 61 % 1019,9 hPa 0,0 l/m 0 min 0 min 0 W/m 9,7 km/h (2 Bft) 97,87 %
_ Min-Zeit 07:06 05:10 05:50 16:22 18:00 - - - - 00:00 03:12
Minimum _ 16,7 C 16,1 C 12,2 C 51 % 1018,4 hPa - - - - 0,0 km/h (0 Bft) 91,30 %
_ Max-Zeit 16:36 16:34 16:14 05:54 10:16 00:00 17:44 00:00 15:40 17:58 00:10
Maximum _ 27,1 C 30,0 C 22,2 C 85 % 1020,8 hPa 0,0 l/m 5 min 0 min 716 W/m 45,1 km/h
NO (6 Bft)
100,00 %
Durchschnitt _ 21,4 C 21,4 C 17,0 C 68 % 1019,9 hPa #0,0 l/m #6:30 h #0 min. 285 W/m 10,5 km/h (2 Bft) 97,71 %
© 2022 W. Hausmann